Provisional Data: Kishacoquillas Creek near Belleville, PA


Please select a monitoring station.
Please select start date.
Please select start date.

Toggle Unit: C/F Toggle Unit: C/F
Sample Time Temperature (C) Temperature (F) Specific Conductivity (mS/cm) pH   Turbidity (NTU+) DO (mg/L)
12/4/2020 12:00:00 AM 5.1 41.18 0.483 7.9 11.94 11.54
12/4/2020 12:15:00 AM 5.08 41.144 0.483 7.9 11.87 11.51
12/4/2020 12:30:00 AM 5.05 41.09 0.483 7.9 13.4 11.49
12/4/2020 12:45:00 AM 5.02 41.036 0.483 7.89 14.72 11.47
12/4/2020 1:00:00 AM 4.98 40.964 0.483 7.89 14.45 11.46
12/4/2020 1:15:00 AM 4.95 40.91 0.483 7.88 12.56 11.44
12/4/2020 1:30:00 AM 4.91 40.838 0.483 7.88 11.25 11.43
12/4/2020 1:45:00 AM 4.88 40.784 0.483 7.88 11.82 11.42
12/4/2020 2:00:00 AM 4.84 40.712 0.483 7.88 12.48 11.42
12/4/2020 2:15:00 AM 4.81 40.658 0.483 7.88 12.31 11.42
12/4/2020 2:30:00 AM 4.78 40.604 0.483 7.88 11.57 11.43
12/4/2020 2:45:00 AM 4.73 40.514 0.482 7.88 15.34 11.43
12/4/2020 3:00:00 AM 4.7 40.46 0.483 7.87 11.71 11.41
12/4/2020 3:15:00 AM 4.67 40.406 0.483 7.88 10.9 11.43
12/4/2020 3:30:00 AM 4.65 40.37 0.483 7.87 10.67 11.42
12/4/2020 3:45:00 AM 4.64 40.352 0.483 7.87 11 11.44
12/4/2020 4:00:00 AM 4.63 40.334 0.483 7.86 11.54 11.42
12/4/2020 4:15:00 AM 4.64 40.352 0.483 7.86 10.99 11.42
12/4/2020 4:30:00 AM 4.64 40.352 0.483 7.86 10.14 11.44
12/4/2020 4:45:00 AM 4.65 40.37 0.483 7.86 11.96 11.42
12/4/2020 5:00:00 AM 4.67 40.406 0.483 7.86 13.41 11.43
12/4/2020 5:15:00 AM 4.68 40.424 0.483 7.85 10.97 11.4
12/4/2020 5:30:00 AM 4.68 40.424 0.483 7.85 11.62 11.37
12/4/2020 5:45:00 AM 4.7 40.46 0.483 7.85 11.06 11.41
12/4/2020 6:00:00 AM 4.7 40.46 0.483 7.85 11.98 11.38
12/4/2020 6:15:00 AM 4.71 40.478 0.484 7.85 11.09 11.39
12/4/2020 6:30:00 AM 4.71 40.478 0.484 7.85 10.34 11.38
12/4/2020 6:45:00 AM 4.72 40.496 0.484 7.84 11.24 11.38
12/4/2020 7:00:00 AM 4.72 40.496 0.484 7.84 12.31 11.38
12/4/2020 7:15:00 AM 4.73 40.514 0.484 7.84 11.65 11.37
12/4/2020 7:30:00 AM 4.73 40.514 0.484 7.83 12.81 11.38
12/4/2020 7:45:00 AM 4.73 40.514 0.484 7.84 11.66 11.41
12/4/2020 8:00:00 AM 4.74 40.532 0.484 7.84 12.41 11.42
12/4/2020 8:15:00 AM 4.73 40.514 0.484 7.84 11.66 11.51
12/4/2020 8:30:00 AM 4.73 40.514 0.484 7.84 11.97 11.61
12/4/2020 8:45:00 AM 4.74 40.532 0.484 7.85 12.4 11.71
12/4/2020 9:00:00 AM 4.76 40.568 0.484 7.86 11.6 11.87
12/4/2020 9:15:00 AM 4.78 40.604 0.484 7.87 11.98 12.03
12/4/2020 9:30:00 AM 4.82 40.676 0.484 7.89 11.04 12.2
12/4/2020 9:45:00 AM 4.88 40.784 0.484 7.9 10.48 12.39
12/4/2020 10:00:00 AM 4.91 40.838 0.483 7.92 10.94 12.55
12/4/2020 10:15:00 AM 4.97 40.946 0.483 7.93 11.36 12.7
12/4/2020 10:30:00 AM 5.04 41.072 0.483 7.95 11.36 12.9
12/4/2020 10:45:00 AM 5.07 41.126 0.483 7.96 10.59 12.94
12/4/2020 11:00:00 AM 5.11 41.198 0.483 7.97 10.58 13.05
12/4/2020 11:15:00 AM 5.17 41.306 0.483 7.98 11.85 13.14
12/4/2020 11:30:00 AM 5.27 41.486 0.482 7.99 10.71 13.31
12/4/2020 11:45:00 AM 5.39 41.702 0.482 8.01 10.72 13.44
12/4/2020 12:00:00 PM 5.41 41.738 0.482 8.02 11.62 13.48
12/4/2020 12:15:00 PM 5.48 41.864 0.482 8.02 11.38 13.53
12/4/2020 12:30:00 PM 5.56 42.008 0.482 8.04 10.96 13.64
12/4/2020 12:45:00 PM 5.61 42.098 0.482 8.04 11.02 13.58
12/4/2020 1:00:00 PM 5.66 42.188 0.482 8.04 11.21 13.54
12/4/2020 1:15:00 PM 5.71 42.278 0.482 8.05 11.82 13.55
12/4/2020 1:30:00 PM 5.78 42.404 0.482 8.05 11.09 13.59
12/4/2020 1:45:00 PM 5.82 42.476 0.482 8.05 11.85 13.53
12/4/2020 2:00:00 PM 5.85 42.53 0.482 8.05 13.87 13.44
12/4/2020 2:15:00 PM 5.89 42.602 0.482 8.05 12.62 13.38
12/4/2020 2:30:00 PM 5.92 42.656 0.482 8.05 12.82 13.34
12/4/2020 2:45:00 PM 5.94 42.692 0.482 8.04 26.58 13.19
12/4/2020 3:00:00 PM 5.95 42.71 0.482 8.04 11.19 13.11
12/4/2020 3:15:00 PM 5.97 42.746 0.483 8.03 10.74 12.99
12/4/2020 3:30:00 PM 5.97 42.746 0.499 8.02 12.9 12.85
12/4/2020 3:45:00 PM 5.98 42.764 0.494 8.01 11.03 12.69
12/4/2020 4:00:00 PM 5.99 42.782 0.49 8 11.6 12.57
12/4/2020 4:15:00 PM 6 42.8 0.488 7.99 12.07 12.41
12/4/2020 4:30:00 PM 6 42.8 0.486 7.98 13.12 12.3
12/4/2020 4:45:00 PM 6.01 42.818 0.486 7.97 12.26 12.21
12/4/2020 5:00:00 PM 6.01 42.818 0.484 7.96 12.7 12.1
12/4/2020 5:15:00 PM 6.02 42.836 0.484 7.96 10.77 12
12/4/2020 5:30:00 PM 6.03 42.854 0.483 7.95 11.82 11.93
12/4/2020 5:45:00 PM 6.04 42.872 0.483 7.94 12.98 11.84
12/4/2020 6:00:00 PM 6.05 42.89 0.482 7.94 11.56 11.81
12/4/2020 6:15:00 PM 6.05 42.89 0.482 7.93 12.44 11.76
12/4/2020 6:30:00 PM 6.06 42.908 0.482 7.92 12.86 11.7
12/4/2020 6:45:00 PM 6.07 42.926 0.489 7.91 12.64 11.63
12/4/2020 7:00:00 PM 6.08 42.944 0.49 7.91 11.08 11.57
12/4/2020 7:15:00 PM 6.09 42.962 0.488 7.91 12.1 11.54
12/4/2020 7:30:00 PM 6.1 42.98 0.489 7.9 11.92 11.49
12/4/2020 7:45:00 PM 6.11 42.998 0.488 7.89 12.17 11.46
12/4/2020 8:00:00 PM 6.12 43.016 0.488 7.89 11.98 11.43
12/4/2020 8:15:00 PM 6.13 43.034 0.492 7.88 11.68 11.36
12/4/2020 8:30:00 PM 6.15 43.07 0.493 7.88 13.38 11.32
12/4/2020 8:45:00 PM 6.16 43.088 0.493 7.88 11.17 11.3
12/4/2020 9:00:00 PM 6.17 43.106 0.494 7.87 11.3 11.28
12/4/2020 9:15:00 PM 6.19 43.142 0.493 7.87 17.15 11.23
12/4/2020 9:30:00 PM 6.2 43.16 0.492 7.87 13.07 11.21
12/4/2020 9:45:00 PM 6.23 43.214 0.49 7.86 12.56 11.19
12/4/2020 10:00:00 PM 6.24 43.232 0.488 7.86 14.02 11.15
12/4/2020 10:15:00 PM 6.26 43.268 0.485 7.85 11.44 11.12
12/4/2020 10:30:00 PM 6.29 43.322 0.484 7.85 15.06 11.09
12/4/2020 10:45:00 PM 6.31 43.358 0.483 7.85 12.44 11.08
12/4/2020 11:00:00 PM 6.33 43.394 0.482 7.85 11.99 11.03
12/4/2020 11:15:00 PM 6.35 43.43 0.481 7.84 12.98 10.98
12/4/2020 11:30:00 PM 6.37 43.466 0.48 7.84 12.02 10.96
12/4/2020 11:45:00 PM 6.38 43.484 0.48 7.84 13.82 10.95
12/5/2020 12:00:00 AM 6.4 43.52 0.479 7.84 12.52 10.91
12/5/2020 12:15:00 AM 6.41 43.538 0.479 7.84 17.39 10.86
12/5/2020 12:30:00 AM 6.43 43.574 0.479 7.83 15.04 10.86
12/5/2020 12:45:00 AM 6.44 43.592 0.479 7.83 13.14 10.84
12/5/2020 1:00:00 AM 6.45 43.61 0.478 7.82 18.23 10.83
12/5/2020 1:15:00 AM 6.46 43.628 0.478 7.82 13.64 10.81
12/5/2020 1:30:00 AM 6.47 43.646 0.478 7.82 14.28 10.78
12/5/2020 1:45:00 AM 6.47 43.646 0.478 7.82 14.07 10.77
12/5/2020 2:00:00 AM 6.48 43.664 0.479 7.82 13.48 10.77
12/5/2020 2:15:00 AM 6.48 43.664 0.478 7.82 15.19 10.75
12/5/2020 2:30:00 AM 6.47 43.646 0.478 7.82 13.82 10.73
12/5/2020 2:45:00 AM 6.45 43.61 0.479 7.82 12.66 10.72
12/5/2020 3:00:00 AM 6.45 43.61 0.478 7.82 12.39 10.7
12/5/2020 3:15:00 AM 6.43 43.574 0.479 7.82 16.29 10.67
12/5/2020 3:30:00 AM 6.42 43.556 0.479 7.8 13.08 10.65
12/5/2020 3:45:00 AM 6.42 43.556 0.479 7.8 14.65 10.66
12/5/2020 4:00:00 AM 6.42 43.556 0.479 7.8 13.36 10.65
12/5/2020 4:15:00 AM 6.41 43.538 0.479 7.8 15.47 10.64
12/5/2020 4:30:00 AM 6.42 43.556 0.479 7.8 12.6 10.62
12/5/2020 4:45:00 AM 6.42 43.556 0.479 7.8 13.96 10.62
12/5/2020 5:00:00 AM 6.4 43.52 0.479 7.8 13.81 10.61
12/5/2020 5:15:00 AM 6.4 43.52 0.478 7.79 13.89 10.61
12/5/2020 5:30:00 AM 6.41 43.538 0.478 7.79 14.86 10.6
12/5/2020 5:45:00 AM 6.4 43.52 0.478 7.79 14.09 10.6
12/5/2020 6:00:00 AM 6.4 43.52 0.478 7.79 14.6 10.61
12/5/2020 6:15:00 AM 6.4 43.52 0.478 7.79 12.41 10.62
12/5/2020 6:30:00 AM 6.4 43.52 0.478 7.8 14.78 10.59
12/5/2020 6:45:00 AM 6.4 43.52 0.478 7.79 13.95 10.61
12/5/2020 7:00:00 AM 6.4 43.52 0.478 7.8 14.78 10.62
12/5/2020 7:15:00 AM 6.4 43.52 0.478 7.79 13.87 10.63
12/5/2020 7:30:00 AM 6.4 43.52 0.477 7.8 13.58 10.63
12/5/2020 7:45:00 AM 6.39 43.502 0.477 7.8 14.23 10.63
12/5/2020 8:00:00 AM 6.39 43.502 0.477 7.79 13.8 10.68
12/5/2020 8:15:00 AM 6.39 43.502 0.477 7.8 13.42 10.7
12/5/2020 8:30:00 AM 6.39 43.502 0.477 7.8 12.48 10.73
12/5/2020 8:45:00 AM 6.4 43.52 0.477 7.81 13.11 10.81
12/5/2020 9:00:00 AM 6.42 43.556 0.477 7.81 11.96 10.89
12/5/2020 9:15:00 AM 6.43 43.574 0.477 7.82 12.33 10.98
12/5/2020 9:30:00 AM 6.44 43.592 0.477 7.82 12.78 11.07
12/5/2020 9:45:00 AM 6.43 43.574 0.477 7.83 12.5 11.15
12/5/2020 10:00:00 AM 6.45 43.61 0.477 7.84 11.43 11.35
12/5/2020 10:15:00 AM 6.53 43.754 0.477 7.86 12.13 11.61
12/5/2020 10:30:00 AM 6.71 44.078 0.476 7.88 11.78 11.9
12/5/2020 10:45:00 AM 6.66 43.988 0.477 7.89 11.42 11.96
12/5/2020 11:00:00 AM 6.65 43.97 0.476 7.91 13.48 12.11
12/5/2020 11:15:00 AM 6.67 44.006 0.476 7.92 18.43 12.23
12/5/2020 11:30:00 AM 6.68 44.024 0.476 7.93 12.4 12.34
12/5/2020 11:45:00 AM 6.68 44.024 0.476 7.95 16.01 12.39
12/5/2020 12:00:00 PM 6.67 44.006 0.476 7.96 13.35 12.42
12/5/2020 12:15:00 PM 6.65 43.97 0.475 7.97 12.77 12.46
12/5/2020 12:30:00 PM 6.63 43.934 0.475 7.98 13.09 12.47
12/5/2020 12:45:00 PM 6.62 43.916 0.475 7.97 34.77 12.51
12/5/2020 1:00:00 PM 6.62 43.916 0.475 7.98 12.52 12.55
12/5/2020 1:15:00 PM 6.62 43.916 0.475 7.99 13.07 12.6
12/5/2020 1:30:00 PM 6.6 43.88 0.475 7.99 11.93 12.54
12/5/2020 1:45:00 PM 6.59 43.862 0.475 7.99 11.83 12.52
12/5/2020 2:00:00 PM 6.6 43.88 0.475 7.99 11.46 12.5
12/5/2020 2:15:00 PM 6.62 43.916 0.475 8 11.71 12.57
12/5/2020 2:30:00 PM 6.61 43.898 0.475 8 11.34 12.52
12/5/2020 2:45:00 PM 6.59 43.862 0.475 8 11.55 12.44
12/5/2020 3:00:00 PM 6.57 43.826 0.475 8 12.85 12.44
12/5/2020 3:15:00 PM 6.54 43.772 0.475 8 12.48 12.39
12/5/2020 3:30:00 PM 6.51 43.718 0.475 7.99 12.4 12.34
12/5/2020 3:45:00 PM 6.48 43.664 0.476 7.99 12.33 12.25
12/5/2020 4:00:00 PM 6.44 43.592 0.476 7.99 14.41 12.18
12/5/2020 4:15:00 PM 6.4 43.52 0.476 7.98 12.34 12.09
12/5/2020 4:30:00 PM 6.36 43.448 0.476 7.97 12.68 12
12/5/2020 4:45:00 PM 6.31 43.358 0.476 7.96 12.2 11.91
12/5/2020 5:00:00 PM 6.27 43.286 0.477 7.96 12.93 11.83
12/5/2020 5:15:00 PM 6.22 43.196 0.477 7.95 13.73 11.74
12/5/2020 5:30:00 PM 6.18 43.124 0.477 7.94 18.36 11.68
12/5/2020 5:45:00 PM 6.15 43.07 0.477 7.94 12.68 11.62
12/5/2020 6:00:00 PM 6.11 42.998 0.477 7.93 11.31 11.56
12/5/2020 6:15:00 PM 6.08 42.944 0.477 7.93 12.03 11.54
12/5/2020 6:30:00 PM 6.05 42.89 0.477 7.92 12.16 11.49
12/5/2020 6:45:00 PM 6.02 42.836 0.477 7.92 12.41 11.47
12/5/2020 7:00:00 PM 6 42.8 0.477 7.91 13.36 11.43
12/5/2020 7:15:00 PM 5.96 42.728 0.477 7.91 15.95 11.4
12/5/2020 7:30:00 PM 5.93 42.674 0.477 7.91 11.85 11.4
12/5/2020 7:45:00 PM 5.9 42.62 0.478 7.91 13.27 11.38
12/5/2020 8:00:00 PM 5.87 42.566 0.478 7.91 14.58 11.33
12/5/2020 8:15:00 PM 5.85 42.53 0.478 7.9 15.8 11.3
12/5/2020 8:30:00 PM 5.83 42.494 0.478 7.9 13.24 11.32
12/5/2020 8:45:00 PM 5.81 42.458 0.479 7.89 15.66 11.28
12/5/2020 9:00:00 PM 5.79 42.422 0.479 7.89 11.99 11.27
12/5/2020 9:15:00 PM 5.77 42.386 0.479 7.89 12.22 11.26
12/5/2020 9:30:00 PM 5.75 42.35 0.479 7.89 13.03 11.27
12/5/2020 9:45:00 PM 5.74 42.332 0.479 7.88 16.79 11.24
12/5/2020 10:00:00 PM 5.71 42.278 0.48 7.88 15.91 11.24
12/5/2020 10:15:00 PM 5.66 42.188 0.48 7.88 14.67 11.25
12/5/2020 10:30:00 PM 5.64 42.152 0.48 7.88 13.23 11.2
12/5/2020 10:45:00 PM 5.62 42.116 0.48 7.88 13.47 11.24
12/5/2020 11:00:00 PM 5.58 42.044 0.48 7.88 14.23 11.25
12/5/2020 11:15:00 PM 5.56 42.008 0.48 7.88 12.39 11.22
12/5/2020 11:30:00 PM 5.55 41.99 0.48 7.88 13.85 11.24
12/5/2020 11:45:00 PM 5.53 41.954 0.48 7.88 14.74 11.21
12/6/2020 12:00:00 AM 5.51 41.918 0.481 7.87 13.9 11.22
12/6/2020 12:15:00 AM 5.48 41.864 0.481 7.87 13.29 11.21
12/6/2020 12:30:00 AM 5.46 41.828 0.481 7.87 14.15 11.21
12/6/2020 12:45:00 AM 5.43 41.774 0.481 7.87 14.16 11.19
12/6/2020 1:00:00 AM 5.41 41.738 0.481 7.86 13.99 11.2
12/6/2020 1:15:00 AM 5.37 41.666 0.481 7.86 16.39 11.21
12/6/2020 1:30:00 AM 5.34 41.612 0.481 7.86 12.52 11.22
12/6/2020 1:45:00 AM 5.31 41.558 0.481 7.86 15.07 11.21
12/6/2020 2:00:00 AM 5.28 41.504 0.482 7.86 13.74 11.2
12/6/2020 2:15:00 AM 5.24 41.432 0.482 7.86 16.6 11.24
12/6/2020 2:30:00 AM 5.21 41.378 0.482 7.86 13.57 11.26
12/6/2020 2:45:00 AM 5.19 41.342 0.482 7.86 12.31 11.25
12/6/2020 3:00:00 AM 5.16 41.288 0.482 7.86 13.45 11.25
12/6/2020 3:15:00 AM 5.13 41.234 0.482 7.86 12.86 11.25
12/6/2020 3:30:00 AM 5.11 41.198 0.482 7.86 12.14 11.28
12/6/2020 3:45:00 AM 5.08 41.144 0.483 7.86 12.54 11.29
12/6/2020 4:00:00 AM 5.05 41.09 0.483 7.85 11.82 11.29
12/6/2020 4:15:00 AM 5.02 41.036 0.483 7.86 12.41 11.29
12/6/2020 4:30:00 AM 5 41 0.483 7.85 11.88 11.28
12/6/2020 4:45:00 AM 4.98 40.964 0.483 7.86 12.15 11.29
12/6/2020 5:00:00 AM 4.95 40.91 0.484 7.85 12.22 11.31
12/6/2020 5:15:00 AM 4.92 40.856 0.484 7.86 15.16 11.33
12/6/2020 5:30:00 AM 4.9 40.82 0.484 7.85 11.36 11.33
12/6/2020 5:45:00 AM 4.87 40.766 0.485 7.85 11.76 11.35
12/6/2020 6:00:00 AM 4.84 40.712 0.485 7.85 12.72 11.35
12/6/2020 6:15:00 AM 4.81 40.658 0.485 7.85 13.07 11.35
12/6/2020 6:30:00 AM 4.78 40.604 0.486 7.85 11.78 11.36
12/6/2020 6:45:00 AM 4.76 40.568 0.486 7.85 13.44 11.36
12/6/2020 7:00:00 AM 4.73 40.514 0.486 7.85 11.98 11.36
12/6/2020 7:15:00 AM 4.71 40.478 0.487 7.85 11.7 11.4
12/6/2020 7:30:00 AM 4.68 40.424 0.487 7.85 11.95 11.42
12/6/2020 7:45:00 AM 4.67 40.406 0.487 7.84 12.71 11.43
12/6/2020 8:00:00 AM 4.65 40.37 0.487 7.85 11.25 11.51
12/6/2020 8:15:00 AM 4.64 40.352 0.488 7.86 12.12 11.61
12/6/2020 8:30:00 AM 4.64 40.352 0.488 7.86 12.11 11.68
12/6/2020 8:45:00 AM 4.63 40.334 0.488 7.87 11.28 11.88
12/6/2020 9:00:00 AM 4.64 40.352 0.488 7.88 10.84 12.06
12/6/2020 9:15:00 AM 4.66 40.388 0.488 7.9 11.75 12.24
12/6/2020 9:30:00 AM 4.65 40.37 0.488 7.91 11.34 12.44
12/6/2020 9:45:00 AM 4.63 40.334 0.488 7.93 11.33 12.59
12/6/2020 10:00:00 AM 4.65 40.37 0.488 7.94 10.91 12.76
12/6/2020 10:15:00 AM 4.7 40.46 0.488 7.96 11.7 12.95
12/6/2020 10:30:00 AM 4.72 40.496 0.488 7.97 11.17 13.11
12/6/2020 10:45:00 AM 4.7 40.46 0.488 7.99 11.15 13.27
12/6/2020 11:00:00 AM 4.76 40.568 0.488 8 11.94 13.36
12/6/2020 11:15:00 AM 4.89 40.802 0.488 8.02 11.02 13.53
12/6/2020 11:30:00 AM 5.04 41.072 0.488 8.03 10.85 13.72
12/6/2020 11:45:00 AM 5.06 41.108 0.488 8.05 11.52 13.81
12/6/2020 12:00:00 PM 5.21 41.378 0.487 8.07 10.83 13.98
12/6/2020 12:15:00 PM 5.23 41.414 0.487 8.08 16.44 14.08
12/6/2020 12:30:00 PM 5.29 41.522 0.487 8.1 11.43 14.13
12/6/2020 12:45:00 PM 5.4 41.72 0.487 8.11 11.63 14.25
12/6/2020 1:00:00 PM 5.45 41.81 0.487 8.12 11.37 14.27
12/6/2020 1:15:00 PM 5.57 42.026 0.487 8.14 11.05 14.36
12/6/2020 1:30:00 PM 5.58 42.044 0.487 8.15 11.12 14.4
12/6/2020 1:45:00 PM 5.59 42.062 0.487 8.15 11.59 14.38
12/6/2020 2:00:00 PM 5.71 42.278 0.487 8.15 11.39 14.44
12/6/2020 2:15:00 PM 5.74 42.332 0.488 8.16 11.62 14.47
12/6/2020 2:30:00 PM 5.75 42.35 0.488 8.17 11.45 14.47
12/6/2020 2:45:00 PM 5.74 42.332 0.488 8.17 12.5 14.39
12/6/2020 3:00:00 PM 5.71 42.278 0.489 8.18 12.09 14.36
12/6/2020 3:15:00 PM 5.66 42.188 0.489 8.18 11.57 14.27
12/6/2020 3:30:00 PM 5.62 42.116 0.489 8.18 11.51 14.21
12/6/2020 3:45:00 PM 5.57 42.026 0.49 8.18 12.52 14.13
12/6/2020 4:00:00 PM 5.5 41.9 0.49 8.17 20.35 14.03
12/6/2020 4:15:00 PM 5.41 41.738 0.491 8.16 11.3 13.86
12/6/2020 4:30:00 PM 5.33 41.594 0.491 8.15 11.93 13.71
12/6/2020 4:45:00 PM 5.24 41.432 0.492 8.14 11.48 13.54
12/6/2020 5:00:00 PM 5.15 41.27 0.492 8.13 12.72 13.39
12/6/2020 5:15:00 PM 5.07 41.126 0.492 8.12 11.81 13.23
12/6/2020 5:30:00 PM 4.98 40.964 0.492 8.11 11.84 13.09
12/6/2020 5:45:00 PM 4.89 40.802 0.492 8.08 11.02 12.94
12/6/2020 6:00:00 PM 4.83 40.694 0.492 8.08 12 12.85
12/6/2020 6:15:00 PM 4.75 40.55 0.492 8.07 11.93 12.74
12/6/2020 6:30:00 PM 4.69 40.442 0.492 8.06 13.84 12.67
12/6/2020 6:45:00 PM 4.63 40.334 0.491 8.05 12.02 12.59
12/6/2020 7:00:00 PM 4.58 40.244 0.491 8.05 11.95 12.53
12/6/2020 7:15:00 PM 4.53 40.154 0.491 8.04 12.54 12.5
12/6/2020 7:30:00 PM 4.48 40.064 0.491 8.04 20.01 12.43
12/6/2020 7:45:00 PM 4.44 39.992 0.49 8.03 11.98 12.37
12/6/2020 8:00:00 PM 4.39 39.902 0.49 8.03 11.33 12.35
12/6/2020 8:15:00 PM 4.35 39.83 0.49 8.02 12.59 12.32
12/6/2020 8:30:00 PM 4.31 39.758 0.49 8.02 11.28 12.27
12/6/2020 8:45:00 PM 4.28 39.704 0.49 8.01 12.16 12.23
12/6/2020 9:00:00 PM 4.25 39.65 0.49 8.01 11.96 12.19
12/6/2020 9:15:00 PM 4.22 39.596 0.49 8.01 12.04 12.15
12/6/2020 9:30:00 PM 4.19 39.542 0.49 8 12.13 12.13
12/6/2020 9:45:00 PM 4.17 39.506 0.49 8 11.53 12.11
12/6/2020 10:00:00 PM 4.14 39.452 0.49 8 11.99 12.1
12/6/2020 10:15:00 PM 4.11 39.398 0.49 7.99 16.49 12.08
12/6/2020 10:30:00 PM 4.08 39.344 0.49 7.99 11.93 12.07
12/6/2020 10:45:00 PM 4.06 39.308 0.49 7.99 14.84 12.04
12/6/2020 11:00:00 PM 4.06 39.308 0.49 7.99 11.95 12.04
12/6/2020 11:15:00 PM 4.05 39.29 0.49 7.98 12.23 12.02
12/6/2020 11:30:00 PM 4.05 39.29 0.491 7.98 11.44 12.01
12/6/2020 11:45:00 PM 4.06 39.308 0.49 7.98 11.87 11.99
12/7/2020 12:00:00 AM 4.06 39.308 0.49 7.97 17.14 11.99
12/7/2020 12:15:00 AM 4.06 39.308 0.491 7.97 11.38 11.94
12/7/2020 12:30:00 AM 4.06 39.308 0.491 7.97 11.77 11.95
12/7/2020 12:45:00 AM 4.03 39.254 0.491 7.96 12.28 11.92
12/7/2020 1:00:00 AM 4 39.2 0.491 7.96 11.25 11.91
12/7/2020 1:15:00 AM 3.95 39.11 0.491 7.96 11.54 11.9
12/7/2020 1:30:00 AM 3.9 39.02 0.491 7.95 12.13 11.9
12/7/2020 1:45:00 AM 3.86 38.948 0.491 7.95 11.83 11.88
12/7/2020 2:00:00 AM 3.81 38.858 0.491 7.95 11.46 11.88
12/7/2020 2:15:00 AM 3.75 38.75 0.491 7.95 11.55 11.9
12/7/2020 2:30:00 AM 3.72 38.696 0.491 7.94 12 11.89
12/7/2020 2:45:00 AM 3.66 38.588 0.491 7.94 11.55 11.91
12/7/2020 3:00:00 AM 3.6 38.48 0.491 7.93 11.2 11.9
12/7/2020 3:15:00 AM 3.55 38.39 0.491 7.93 12.13 11.9
12/7/2020 3:30:00 AM 3.5 38.3 0.491 7.93 11.37 11.92
12/7/2020 3:45:00 AM 3.45 38.21 0.491 7.93 10.86 11.92
12/7/2020 4:00:00 AM 3.4 38.12 0.491 7.93 11.11 11.95
12/7/2020 4:15:00 AM 3.35 38.03 0.491 7.93 11.69 11.97
12/7/2020 4:30:00 AM 3.29 37.922 0.491 7.93 10.86 11.97
12/7/2020 4:45:00 AM 3.25 37.85 0.491 7.92 11.66 12
12/7/2020 5:00:00 AM 3.2 37.76 0.491 7.93 12.55 11.99
12/7/2020 5:15:00 AM 3.16 37.688 0.491 7.92 12.17 12.03
12/7/2020 5:30:00 AM 3.12 37.616 0.492 7.92 11.02 12.03
12/7/2020 5:45:00 AM 3.08 37.544 0.492 7.92 11.62 12.05
12/7/2020 6:00:00 AM 3.05 37.49 0.492 7.92 10.98 12.07
12/7/2020 6:15:00 AM 3.02 37.436 0.492 7.91 11.47 12.06
12/7/2020 6:30:00 AM 3 37.4 0.493 7.91 11.19 12.09
12/7/2020 6:45:00 AM 2.98 37.364 0.493 7.91 11.8 12.11
12/7/2020 7:00:00 AM 2.97 37.346 0.493 7.91 11.3 12.13
12/7/2020 7:15:00 AM 2.95 37.31 0.493 7.91 11.98 12.13
12/7/2020 7:30:00 AM 2.94 37.292 0.493 7.91 11.2 12.14
12/7/2020 7:45:00 AM 2.94 37.292 0.494 7.91 10.77 12.18
12/7/2020 8:00:00 AM 2.95 37.31 0.494 7.9 11.83 12.22
12/7/2020 8:15:00 AM 2.95 37.31 0.494 7.91 11.23 12.28
12/7/2020 8:30:00 AM 2.96 37.328 0.494 7.91 11.45 12.35
12/7/2020 8:45:00 AM 2.98 37.364 0.494 7.91 10.86 12.45
12/7/2020 9:00:00 AM 3 37.4 0.494 7.91 11.49 12.53
12/7/2020 9:15:00 AM 3.01 37.418 0.494 7.92 11.07 12.62
12/7/2020 9:30:00 AM 3.05 37.49 0.494 7.93 11.17 12.77
12/7/2020 9:45:00 AM 3.11 37.598 0.494 7.93 11.15 12.99
12/7/2020 10:00:00 AM 3.15 37.67 0.495 7.95 13.63 13.17
12/7/2020 10:15:00 AM 3.21 37.778 0.494 7.96 10.96 13.37
12/7/2020 10:30:00 AM 3.34 38.012 0.494 7.98 11.65 13.63
12/7/2020 10:45:00 AM 3.4 38.12 0.494 8 10.8 13.82
12/7/2020 11:00:00 AM 3.48 38.264 0.494 8.01 11.57 14.01
12/7/2020 11:15:00 AM 3.55 38.39 0.493 8.03 11.75 14.14
12/7/2020 11:30:00 AM 3.63 38.534 0.493 8.04 11.08 14.28
12/7/2020 11:45:00 AM 3.75 38.75 0.493 8.06 11.34 14.41
12/7/2020 12:00:00 PM 3.87 38.966 0.493 8.07 11.23 14.55
12/7/2020 12:15:00 PM 4 39.2 0.493 8.09 13.14 14.65
12/7/2020 12:30:00 PM 4.03 39.254 0.493 8.09 11.3 14.69
12/7/2020 12:45:00 PM 4.04 39.272 0.493 8.1 11.92 14.71
12/7/2020 1:00:00 PM 4.11 39.398 0.493 8.11 11.8 14.78
12/7/2020 1:15:00 PM 4.22 39.596 0.493 8.12 11.15 14.83
12/7/2020 1:30:00 PM 4.32 39.776 0.493 8.14 11.5 14.92
12/7/2020 1:45:00 PM 4.32 39.776 0.493 8.15 13.13 14.9
12/7/2020 2:00:00 PM 4.31 39.758 0.493 8.15 11.37 14.87
12/7/2020 2:15:00 PM 4.39 39.902 0.493 8.16 11.66 14.95
12/7/2020 2:30:00 PM 4.41 39.938 0.493 8.16 11.39 14.95
12/7/2020 2:45:00 PM 4.39 39.902 0.493 8.17 12.39 14.89
12/7/2020 3:00:00 PM 4.35 39.83 0.493 8.16 11.78 14.8
12/7/2020 3:15:00 PM 4.35 39.83 0.493 8.17 11.18 14.71
12/7/2020 3:30:00 PM 4.32 39.776 0.493 8.17 11.47 14.65
12/7/2020 3:45:00 PM 4.26 39.668 0.494 8.17 11.84 14.52
12/7/2020 4:00:00 PM 4.21 39.578 0.494 8.16 12.31 14.4
12/7/2020 4:15:00 PM 4.13 39.434 0.494 8.16 12.71 14.27
12/7/2020 4:30:00 PM 4.05 39.29 0.494 8.15 11.51 14.1
12/7/2020 4:45:00 PM 3.99 39.182 0.495 8.13 11.4 13.9
12/7/2020 5:00:00 PM 3.94 39.092 0.496 8.12 11.63 13.72
12/7/2020 5:15:00 PM 3.89 39.002 0.496 8.11 13.53 13.59
12/7/2020 5:30:00 PM 3.84 38.912 0.496 8.09 12 13.45
12/7/2020 5:45:00 PM 3.78 38.804 0.496 8.08 11.72 13.35
12/7/2020 6:00:00 PM 3.73 38.714 0.496 8.07 11.93 13.22
12/7/2020 6:15:00 PM 3.67 38.606 0.496 8.07 11.76 13.12
12/7/2020 6:30:00 PM 3.62 38.516 0.497 8.06 11.67 13.05
12/7/2020 6:45:00 PM 3.57 38.426 0.497 8.05 11.9 12.99
12/7/2020 7:00:00 PM 3.53 38.354 0.497 8.04 11.89 12.95
12/7/2020 7:15:00 PM 3.48 38.264 0.497 8.04 11.81 12.9
12/7/2020 7:30:00 PM 3.43 38.174 0.497 8.04 12.95 12.86
12/7/2020 7:45:00 PM 3.39 38.102 0.496 8.03 11.47 12.83
12/7/2020 8:00:00 PM 3.36 38.048 0.496 8.03 12.23 12.8
12/7/2020 8:15:00 PM 3.32 37.976 0.496 8.03 12.7 12.76
12/7/2020 8:30:00 PM 3.27 37.886 0.496 8.03 14.18 12.75
12/7/2020 8:45:00 PM 3.24 37.832 0.496 8.02 14.22 12.7
12/7/2020 9:00:00 PM 3.21 37.778 0.497 8.02 23.67 12.67
12/7/2020 9:15:00 PM 3.18 37.724 0.497 8.01 13.93 12.63
12/7/2020 9:30:00 PM 3.14 37.652 0.497 8.01 14.6 12.6
12/7/2020 9:45:00 PM 3.12 37.616 0.497 8 14.27 12.58
12/7/2020 10:00:00 PM 3.11 37.598 0.497 8 14.45 12.55
12/7/2020 10:15:00 PM 3.1 37.58 0.497 8 13.2 12.53
12/7/2020 10:30:00 PM 3.11 37.598 0.497 8 13.76 12.5
12/7/2020 10:45:00 PM 3.11 37.598 0.496 7.99 11.82 12.47
12/7/2020 11:00:00 PM 3.11 37.598 0.496 7.99 12.31 12.47
12/7/2020 11:15:00 PM 3.11 37.598 0.496 7.98 11.79 12.42
12/7/2020 11:30:00 PM 3.13 37.634 0.496 7.98 11.97 12.41
12/7/2020 11:45:00 PM 3.13 37.634 0.497 7.98 13.83 12.38
12/8/2020 12:00:00 AM 3.12 37.616 0.496 7.97 11.91 12.36
12/8/2020 12:15:00 AM 3.1 37.58 0.496 7.97 11.68 12.35
12/8/2020 12:30:00 AM 3.09 37.562 0.496 7.96 12.52 12.32
12/8/2020 12:45:00 AM 3.08 37.544 0.496 7.96 12.7 12.3
12/8/2020 1:00:00 AM 3.06 37.508 0.496 7.97 11.86 12.28
12/8/2020 1:15:00 AM 3.07 37.526 0.496 7.96 11.9 12.25
12/8/2020 1:30:00 AM 3.05 37.49 0.497 7.96 11.7 12.22
12/8/2020 1:45:00 AM 3.05 37.49 0.496 7.95 11.83 12.2
12/8/2020 2:00:00 AM 3.05 37.49 0.496 7.95 12.69 12.19
12/8/2020 2:15:00 AM 3.04 37.472 0.496 7.95 11.4 12.18
12/8/2020 2:30:00 AM 3.04 37.472 0.496 7.95 11.39 12.16
12/8/2020 2:45:00 AM 3.04 37.472 0.496 7.94 11.05 12.15
12/8/2020 3:00:00 AM 3.02 37.436 0.496 7.94 11.89 12.15
12/8/2020 3:15:00 AM 2.99 37.382 0.496 7.93 11.66 12.14
12/8/2020 3:30:00 AM 2.96 37.328 0.496 7.93 11.28 12.14
12/8/2020 3:45:00 AM 2.94 37.292 0.496 7.94 10.79 12.15
12/8/2020 4:00:00 AM 2.91 37.238 0.496 7.93 11.09 12.14
12/8/2020 4:15:00 AM 2.89 37.202 0.495 7.93 11.12 12.14
12/8/2020 4:30:00 AM 2.87 37.166 0.495 7.93 11.05 12.14
12/8/2020 4:45:00 AM 2.84 37.112 0.495 7.92 12.88 12.15
12/8/2020 5:00:00 AM 2.81 37.058 0.495 7.92 11.13 12.16
12/8/2020 5:15:00 AM 2.76 36.968 0.495 7.93 11.38 12.17
12/8/2020 5:30:00 AM 2.71 36.878 0.495 7.92 10.65 12.18
12/8/2020 5:45:00 AM 2.66 36.788 0.495 7.92 11.13 12.2
12/8/2020 6:00:00 AM 2.61 36.698 0.495 7.92 11.46 12.22
12/8/2020 6:15:00 AM 2.58 36.644 0.495 7.92 11.3 12.23
12/8/2020 6:30:00 AM 2.54 36.572 0.496 7.92 22.66 12.23
12/8/2020 6:45:00 AM 2.5 36.5 0.496 7.92 11.24 12.25
12/8/2020 7:00:00 AM 2.46 36.428 0.496 7.92 10.76 12.26
12/8/2020 7:15:00 AM 2.42 36.356 0.496 7.92 11.21 12.26
12/8/2020 7:30:00 AM 2.4 36.32 0.496 7.92 11.84 12.3
12/8/2020 7:45:00 AM 2.36 36.248 0.496 7.91 11.14 12.35
12/8/2020 8:00:00 AM 2.33 36.194 0.497 7.92 11.15 12.41
12/8/2020 8:15:00 AM 2.29 36.122 0.497 7.92 14.52 12.47
12/8/2020 8:30:00 AM 2.26 36.068 0.497 7.92 11.67 12.57
12/8/2020 8:45:00 AM 2.24 36.032 0.497 7.93 11.85 12.69
12/8/2020 9:00:00 AM 2.24 36.032 0.497 7.94 12.59 12.8
12/8/2020 9:15:00 AM 2.24 36.032 0.497 7.94 13.16 12.96
12/8/2020 9:30:00 AM 2.29 36.122 0.498 7.95 11.4 13.12
12/8/2020 9:45:00 AM 2.35 36.23 0.498 7.96 11.54 13.31
12/8/2020 10:00:00 AM 2.43 36.374 0.497 7.97 12.66 13.5
12/8/2020 10:15:00 AM 2.51 36.518 0.497 7.98 11.81 13.67
12/8/2020 10:30:00 AM 2.61 36.698 0.497 8 11.25 13.84
12/8/2020 10:45:00 AM 2.73 36.914 0.497 8.01 11.52 14.01
12/8/2020 11:00:00 AM 2.85 37.13 0.497 8.02 11.3 14.16
12/8/2020 11:15:00 AM 2.99 37.382 0.497 8.04 11.16 14.3
12/8/2020 11:30:00 AM 3.13 37.634 0.497 8.05 12.91 14.42
12/8/2020 11:45:00 AM 3.28 37.904 0.497 8.07 11.13 14.54
12/8/2020 12:00:00 PM 3.42 38.156 0.497 8.08 10.97 14.63
12/8/2020 12:15:00 PM 3.57 38.426 0.497 8.09 11.85 14.75
12/8/2020 12:30:00 PM 3.71 38.678 0.497 8.11 11.38 14.81
12/8/2020 12:45:00 PM 3.84 38.912 0.497 8.12 12.08 14.87
12/8/2020 1:00:00 PM 3.96 39.128 0.497 8.13 11.79 14.89
12/8/2020 1:15:00 PM 4.09 39.362 0.497 8.13 11.43 14.92
12/8/2020 1:30:00 PM 4.19 39.542 0.498 8.15 11.17 14.95
12/8/2020 1:45:00 PM 4.27 39.686 0.498 8.15 13.58 14.99
12/8/2020 2:00:00 PM 4.37 39.866 0.498 8.16 11.26 14.96
12/8/2020 2:15:00 PM 4.42 39.956 0.498 8.17 11.36 14.94
12/8/2020 2:30:00 PM 4.46 40.028 0.498 8.17 11.58 14.89
12/8/2020 2:45:00 PM 4.48 40.064 0.499 8.17 10.81 14.85
12/8/2020 3:00:00 PM 4.5 40.1 0.499 8.16 11.1 14.8
12/8/2020 3:15:00 PM 4.51 40.118 0.5 8.17 11.38 14.76
12/8/2020 3:30:00 PM 4.49 40.082 0.5 8.17 10.97 14.66
12/8/2020 3:45:00 PM 4.43 39.974 0.5 8.17 11.29 14.55
12/8/2020 4:00:00 PM 4.38 39.884 0.5 8.16 11.35 14.47
12/8/2020 4:15:00 PM 4.3 39.74 0.5 8.16 12.11 14.34
12/8/2020 4:30:00 PM 4.21 39.578 0.501 8.15 11.54 14.19
12/8/2020 4:45:00 PM 4.13 39.434 0.501 8.15 10.74 14.01
12/8/2020 5:00:00 PM 4.04 39.272 0.501 8.14 11.58 13.83
12/8/2020 5:15:00 PM 3.97 39.146 0.502 8.12 12.71 13.66
12/8/2020 5:30:00 PM 3.91 39.038 0.502 8.12 11.45 13.51
12/8/2020 5:45:00 PM 3.85 38.93 0.502 8.11 11.05 13.39
12/8/2020 6:00:00 PM 3.79 38.822 0.503 8.09 12.17 13.3
12/8/2020 6:15:00 PM 3.74 38.732 0.503 8.09 12.57 13.22
12/8/2020 6:30:00 PM 3.68 38.624 0.503 8.08 10.81 13.13
12/8/2020 6:45:00 PM 3.63 38.534 0.504 8.07 10.89 13.06
12/8/2020 7:00:00 PM 3.59 38.462 0.504 8.07 11.46 13.01
12/8/2020 7:15:00 PM 3.55 38.39 0.504 8.06 12.73 12.96
12/8/2020 7:30:00 PM 3.5 38.3 0.504 8.06 10.93 12.93
12/8/2020 7:45:00 PM 3.45 38.21 0.504 8.05 11.35 12.88
12/8/2020 8:00:00 PM 3.4 38.12 0.504 8.05 11.42 12.84
12/8/2020 8:15:00 PM 3.35 38.03 0.504 8.05 10.83 12.82
12/8/2020 8:30:00 PM 3.3 37.94 0.504 8.04 10.82 12.79
12/8/2020 8:45:00 PM 3.26 37.868 0.504 8.04 11.26 12.77
12/8/2020 9:00:00 PM 3.23 37.814 0.505 8.04 11.58 12.71
12/8/2020 9:15:00 PM 3.19 37.742 0.505 8.03 11.3 12.67
12/8/2020 9:30:00 PM 3.17 37.706 0.505 8.03 12.04 12.65
12/8/2020 9:45:00 PM 3.14 37.652 0.505 8.02 14.4 12.58
12/8/2020 10:00:00 PM 3.12 37.616 0.505 8.01 11.77 12.54
12/8/2020 10:15:00 PM 3.1 37.58 0.505 8.01 11.62 12.5
12/8/2020 10:30:00 PM 3.06 37.508 0.505 8 11.84 12.49
12/8/2020 10:45:00 PM 3.03 37.454 0.504 8 11.44 12.48
12/8/2020 11:00:00 PM 3.02 37.436 0.504 8 12.18 12.45
12/8/2020 11:15:00 PM 3.02 37.436 0.504 8 11.31 12.45
12/8/2020 11:30:00 PM 3 37.4 0.503 7.99 12.94 12.44
12/8/2020 11:45:00 PM 2.98 37.364 0.503 8 11.3 12.43
12/9/2020 12:00:00 AM 2.98 37.364 0.502 7.99 11.6 12.41
12/9/2020 12:15:00 AM 2.99 37.382 0.502 7.99 11.57 12.39
12/9/2020 12:30:00 AM 2.98 37.364 0.502 7.99 10.97 12.39
12/9/2020 12:45:00 AM 2.98 37.364 0.502 7.99 11.87 12.36
12/9/2020 1:00:00 AM 2.97 37.346 0.502 7.98 11.46 12.33
12/9/2020 1:15:00 AM 2.95 37.31 0.502 7.98 11.44 12.31
12/9/2020 1:30:00 AM 2.96 37.328 0.501 7.97 11.75 12.29
12/9/2020 1:45:00 AM 2.95 37.31 0.501 7.97 11.56 12.28
12/9/2020 2:00:00 AM 2.95 37.31 0.501 7.96 11.64 12.24
12/9/2020 2:15:00 AM 2.95 37.31 0.501 7.96 11.62 12.21
12/9/2020 2:30:00 AM 2.93 37.274 0.501 7.95 11.5 12.22
12/9/2020 2:45:00 AM 2.92 37.256 0.501 7.94 11.27 12.2
12/9/2020 3:00:00 AM 2.92 37.256 0.501 7.94 11.6 12.2
12/9/2020 3:15:00 AM 2.91 37.238 0.501 7.94 11.4 12.2
12/9/2020 3:30:00 AM 2.9 37.22 0.502 7.94 11.23 12.17
12/9/2020 3:45:00 AM 2.9 37.22 0.502 7.94 11.46 12.18
12/9/2020 4:00:00 AM 2.88 37.184 0.502 7.93 12.04 12.16
12/9/2020 4:15:00 AM 2.87 37.166 0.502 7.94 11.69 12.17
12/9/2020 4:30:00 AM 2.86 37.148 0.502 7.94 12.01 12.16
12/9/2020 4:45:00 AM 2.85 37.13 0.502 7.93 11.45 12.15
12/9/2020 5:00:00 AM 2.84 37.112 0.503 7.93 11.6 12.15
12/9/2020 5:15:00 AM 2.82 37.076 0.503 7.93 11.36 12.17
12/9/2020 5:30:00 AM 2.8 37.04 0.503 7.93 10.98 12.15
12/9/2020 5:45:00 AM 2.79 37.022 0.503 7.93 11.67 12.18
12/9/2020 6:00:00 AM 2.78 37.004 0.503 7.93 10.94 12.17
12/9/2020 6:15:00 AM 2.77 36.986 0.503 7.93 11.7 12.17
12/9/2020 6:30:00 AM 2.77 36.986 0.503 7.92 13.51 12.16
12/9/2020 6:45:00 AM 2.76 36.968 0.503 7.92 11.6 12.16
12/9/2020 7:00:00 AM 2.76 36.968 0.503 7.92 12.1 12.17
12/9/2020 7:15:00 AM 2.76 36.968 0.503 7.92 15.05 12.16
12/9/2020 7:30:00 AM 2.76 36.968 0.503 7.92 13.27 12.14
12/9/2020 7:45:00 AM 2.77 36.986 0.503 7.92 11.37 12.16
12/9/2020 8:00:00 AM 2.77 36.986 0.503 7.92 11.23 12.18
12/9/2020 8:15:00 AM 2.78 37.004 0.503 7.92 11.16 12.25
12/9/2020 8:30:00 AM 2.79 37.022 0.503 7.92 11.09 12.28
12/9/2020 8:45:00 AM 2.8 37.04 0.503 7.92 10.99 12.28
12/9/2020 9:00:00 AM 2.81 37.058 0.503 7.92 12.58 12.31
12/9/2020 9:15:00 AM 2.83 37.094 0.503 7.92 12.52 12.35
12/9/2020 9:30:00 AM 2.85 37.13 0.503 7.92 11.28 12.39
12/9/2020 9:45:00 AM 2.89 37.202 0.503 7.92 11.55 12.48
12/9/2020 10:00:00 AM 2.92 37.256 0.503 7.92 12.06 12.58
12/9/2020 10:15:00 AM 2.95 37.31 0.503 7.93 12.33 12.66
12/9/2020 10:30:00 AM 2.99 37.382 0.503 7.94 12.17 12.8
12/9/2020 10:45:00 AM 3.03 37.454 0.503 7.95 12.81 12.94
12/9/2020 11:00:00 AM 3.07 37.526 0.503 7.96 12.68 13.03
12/9/2020 11:15:00 AM 3.11 37.598 0.503 7.97 12.52 13.13
12/9/2020 11:30:00 AM 3.15 37.67 0.503 7.97 12.63 13.26
12/9/2020 11:45:00 AM 3.2 37.76 0.503 7.98 11.3 13.33
12/9/2020 12:00:00 PM 3.25 37.85 0.504 7.99 11.59 13.45
12/9/2020 12:15:00 PM 3.3 37.94 0.504 8 12.01 13.56
12/9/2020 12:30:00 PM 3.35 38.03 0.504 8.01 11.95 13.63
12/9/2020 12:45:00 PM 3.41 38.138 0.504 8.02 11.12 13.72
12/9/2020 1:00:00 PM 3.46 38.228 0.504 8.03 11.17 13.79
12/9/2020 1:15:00 PM 3.51 38.318 0.504 8.04 10.8 13.84
12/9/2020 1:30:00 PM 3.55 38.39 0.505 8.04 11.78 13.82
12/9/2020 1:45:00 PM 3.59 38.462 0.505 8.04 11.49 13.84
12/9/2020 2:00:00 PM 3.63 38.534 0.506 8.05 11.8 13.85
12/9/2020 2:15:00 PM 3.67 38.606 0.507 8.05 12.23 13.79
12/9/2020 2:30:00 PM 3.69 38.642 0.508 8.05 11.98 13.72
12/9/2020 2:45:00 PM 3.71 38.678 0.509 8.05 13.19 13.67
12/9/2020 3:00:00 PM 3.73 38.714 0.508 8.05 11.84 13.58
12/9/2020 3:15:00 PM 3.74 38.732 0.509 8.04 11.29 13.5
12/9/2020 3:30:00 PM 3.75 38.75 0.51 8.04 11.53 13.39
12/9/2020 3:45:00 PM 3.76 38.768 0.51 8.03 15.71 13.31
12/9/2020 4:00:00 PM 3.77 38.786 0.51 8.02 14.49 13.19
12/9/2020 4:15:00 PM 3.77 38.786 0.511 8.02 15.14 13.12
12/9/2020 4:30:00 PM 3.78 38.804 0.511 8.01 12.48 13.02
12/9/2020 4:45:00 PM 3.78 38.804 0.511 8.01 11.99 12.95
12/9/2020 5:00:00 PM 3.78 38.804 0.511 8 12.3 12.87
12/9/2020 5:15:00 PM 3.78 38.804 0.512 8 13.4 12.79
12/9/2020 5:30:00 PM 3.78 38.804 0.512 7.99 12.96 12.71
12/9/2020 5:45:00 PM 3.78 38.804 0.512 7.99 12.28 12.64
12/9/2020 6:00:00 PM 3.78 38.804 0.512 7.99 11.44 12.59
12/9/2020 6:15:00 PM 3.79 38.822 0.512 7.98 12 12.55
12/9/2020 6:30:00 PM 3.79 38.822 0.512 7.98 11.78 12.49
12/9/2020 6:45:00 PM 3.8 38.84 0.511 7.97 12.09 12.43
12/9/2020 7:00:00 PM 3.8 38.84 0.511 7.97 12.98 12.42
12/9/2020 7:15:00 PM 3.8 38.84 0.511 7.97 11.55 12.38
12/9/2020 7:30:00 PM 3.81 38.858 0.511 7.97 12.23 12.34
12/9/2020 7:45:00 PM 3.81 38.858 0.51 7.96 12.08 12.31
12/9/2020 8:00:00 PM 3.82 38.876 0.509 7.96 12.45 12.29
12/9/2020 8:15:00 PM 3.84 38.912 0.509 7.96 12.29 12.27
12/9/2020 8:30:00 PM 3.85 38.93 0.509 7.96 12.72 12.26
12/9/2020 8:45:00 PM 3.86 38.948 0.511 7.96 12.95 12.25
12/9/2020 9:00:00 PM 3.87 38.966 0.513 7.95 13.21 12.19
12/9/2020 9:15:00 PM 3.89 39.002 0.516 7.95 12.7 12.17
12/9/2020 9:30:00 PM 3.91 39.038 0.519 7.95 12.03 12.16
12/9/2020 9:45:00 PM 3.92 39.056 0.521 7.95 12.9 12.12
12/9/2020 10:00:00 PM 3.94 39.092 0.521 7.95 12.01 12.09
12/9/2020 10:15:00 PM 3.96 39.128 0.52 7.95 11.29 12.09
12/9/2020 10:30:00 PM 3.98 39.164 0.518 7.95 12.31 12.09
12/9/2020 10:45:00 PM 4.01 39.218 0.516 7.95 11.6 12.06
12/9/2020 11:00:00 PM 4.03 39.254 0.514 7.95 12.34 12.03
12/9/2020 11:15:00 PM 4.05 39.29 0.512 7.95 11.84 12.05
12/9/2020 11:30:00 PM 4.07 39.326 0.511 7.95 11.79 12.02
12/9/2020 11:45:00 PM 4.09 39.362 0.51 7.95 11.93 12
12/10/2020 12:00:00 AM 4.11 39.398 0.508 7.95 12.44 11.97
12/10/2020 12:15:00 AM 4.13 39.434 0.508 7.94 11.94 11.96
12/10/2020 12:30:00 AM 4.15 39.47 0.508 7.94 11.71 11.91
12/10/2020 12:45:00 AM 4.17 39.506 0.508 7.94 11.78 11.86
12/10/2020 1:00:00 AM 4.2 39.56 0.507 7.94 11.61 11.85
12/10/2020 1:15:00 AM 4.21 39.578 0.507 7.94 12.17 11.83
12/10/2020 1:30:00 AM 4.22 39.596 0.507 7.93 11.03 11.81
12/10/2020 1:45:00 AM 4.24 39.632 0.507 7.93 14.39 11.78
12/10/2020 2:00:00 AM 4.25 39.65 0.507 7.93 11.25 11.76
12/10/2020 2:15:00 AM 4.26 39.668 0.507 7.92 11.72 11.76
12/10/2020 2:30:00 AM 4.28 39.704 0.507 7.92 14.74 11.73
12/10/2020 2:45:00 AM 4.28 39.704 0.506 7.92 12.6 11.7
12/10/2020 3:00:00 AM 4.29 39.722 0.507 7.92 12.49 11.7
12/10/2020 3:15:00 AM 4.3 39.74 0.507 7.92 12.74 11.68
12/10/2020 3:30:00 AM 4.31 39.758 0.507 7.92 12.51 11.66
12/10/2020 3:45:00 AM 4.32 39.776 0.506 7.91 11.86 11.64
12/10/2020 4:00:00 AM 4.33 39.794 0.506 7.91 11.83 11.65
12/10/2020 4:15:00 AM 4.34 39.812 0.506 7.91 12.42 11.62
12/10/2020 4:30:00 AM 4.35 39.83 0.506 7.91 12.98 11.61
12/10/2020 4:45:00 AM 4.35 39.83 0.506 7.9 13.58 11.58
12/10/2020 5:00:00 AM 4.36 39.848 0.506 7.91 12.33 11.57
12/10/2020 5:15:00 AM 4.37 39.866 0.506 7.9 54.42 11.55
12/10/2020 5:30:00 AM 4.37 39.866 0.506 7.89 76.34 11.52
12/10/2020 5:45:00 AM 4.38 39.884 0.506 7.9 7.54 11.55
12/10/2020 6:00:00 AM 4.38 39.884 0.506 7.89 7.33 11.57
12/10/2020 6:15:00 AM 4.38 39.884 0.505 7.9 10.09 11.56
12/10/2020 6:30:00 AM 4.39 39.902 0.505 7.89 7.34 11.56
12/10/2020 6:45:00 AM 4.4 39.92 0.505 7.89 7.38 11.54
12/10/2020 7:00:00 AM 4.4 39.92 0.505 7.89 7.1 11.56
12/10/2020 7:15:00 AM 4.41 39.938 0.505 7.89 7.87 11.54
12/10/2020 7:30:00 AM 4.42 39.956 0.505 7.89 23.75 11.56
12/10/2020 7:45:00 AM 4.43 39.974 0.505 7.89 6.87 11.55
12/10/2020 8:00:00 AM 4.44 39.992 0.505 7.89 6.8 11.57
12/10/2020 8:15:00 AM 4.45 40.01 0.505 7.89 7.5 11.62
12/10/2020 8:30:00 AM 4.47 40.046 0.505 7.89 7.59 11.65
12/10/2020 8:45:00 AM 4.48 40.064 0.505 7.89 6.82 11.71
12/10/2020 9:00:00 AM 4.51 40.118 0.505 7.9 8.28 11.81
12/10/2020 9:15:00 AM 4.54 40.172 0.505 7.91 8.04 11.92
12/10/2020 9:30:00 AM 4.59 40.262 0.505 7.92 9.22 12.1
12/10/2020 9:45:00 AM 4.66 40.388 0.505 7.92 7.54 12.29
12/10/2020 10:00:00 AM 4.72 40.496 0.505 7.93 7.56 12.49
12/10/2020 10:15:00 AM 4.77 40.586 0.505 7.94 7.76 12.64
12/10/2020 10:30:00 AM 4.84 40.712 0.505 7.96 7.57 12.86
12/10/2020 10:45:00 AM 4.93 40.874 0.505 7.97 7.04 13.12
12/10/2020 11:00:00 AM 5.07 41.126 0.504 8 7.92 13.36
12/10/2020 11:15:00 AM 5.25 41.45 0.503 8.01 7.29 13.62
12/10/2020 11:30:00 AM 5.26 41.468 0.504 8.03 8.29 13.75
12/10/2020 11:45:00 AM 5.42 41.756 0.503 8.05 6.71 13.93
12/10/2020 12:00:00 PM 5.63 42.134 0.503 8.07 7.13 14.13
12/10/2020 12:15:00 PM 5.78 42.404 0.502 8.09 6.77 14.3
12/10/2020 12:30:00 PM 5.9 42.62 0.502 8.1 6.42 14.44
12/10/2020 12:45:00 PM 6.04 42.872 0.502 8.11 6.78 14.52
12/10/2020 1:00:00 PM 6.14 43.052 0.502 8.12 8.24 14.62
12/10/2020 1:15:00 PM 6.26 43.268 0.502 8.13 10.31 14.67
12/10/2020 1:30:00 PM 6.37 43.466 0.502 8.14 6.73 14.75
12/10/2020 1:45:00 PM 6.47 43.646 0.502 8.15 8.11 14.8
12/10/2020 2:00:00 PM 6.54 43.772 0.502 8.15 8.25 14.81
12/10/2020 2:15:00 PM 6.58 43.844 0.502 8.16 7.42 14.78
12/10/2020 2:30:00 PM 6.62 43.916 0.501 8.17 6.93 14.76
12/10/2020 2:45:00 PM 6.63 43.934 0.501 8.17 7.02 14.7
12/10/2020 3:00:00 PM 6.65 43.97 0.501 8.17 6.91 14.65
12/10/2020 3:15:00 PM 6.66 43.988 0.501 8.17 8.07 14.54
12/10/2020 3:30:00 PM 6.65 43.97 0.502 8.17 8.62 14.46
12/10/2020 3:45:00 PM 6.63 43.934 0.502 8.17 7.18 14.32
12/10/2020 4:00:00 PM 6.61 43.898 0.502 8.17 7.14 14.17
12/10/2020 4:15:00 PM 6.57 43.826 0.503 8.16 8.83 13.95
12/10/2020 4:30:00 PM 6.51 43.718 0.503 8.15 10.21 13.68
12/10/2020 4:45:00 PM 6.44 43.592 0.504 8.14 10.15 13.46
12/10/2020 5:00:00 PM 6.37 43.466 0.505 8.12 11.73 13.19
12/10/2020 5:15:00 PM 6.3 43.34 0.505 8.11 8.47 13
12/10/2020 5:30:00 PM 6.23 43.214 0.505 8.1 9.31 12.79
12/10/2020 5:45:00 PM 6.16 43.088 0.506 8.09 11.98 12.63
12/10/2020 6:00:00 PM 6.08 42.944 0.506 8.07 10.32 12.47
12/10/2020 6:15:00 PM 6 42.8 0.506 8.06 9.76 12.37
12/10/2020 6:30:00 PM 5.93 42.674 0.507 8.05 10.83 12.24
12/10/2020 6:45:00 PM 5.85 42.53 0.507 8.05 8.94 12.18
12/10/2020 7:00:00 PM 5.78 42.404 0.507 8.04 9.21 12.11
12/10/2020 7:15:00 PM 5.7 42.26 0.508 8.03 9.21 12.05
12/10/2020 7:30:00 PM 5.63 42.134 0.508 8.03 9.58 11.98
12/10/2020 7:45:00 PM 5.56 42.008 0.507 8.02 9.09 11.95
12/10/2020 8:00:00 PM 5.48 41.864 0.507 8.02 9.36 11.93
12/10/2020 8:15:00 PM 5.41 41.738 0.508 8.02 8.55 11.9
12/10/2020 8:30:00 PM 5.34 41.612 0.508 8.02 8.27 11.88
12/10/2020 8:45:00 PM 5.27 41.486 0.508 8.01 10.86 11.84
12/10/2020 9:00:00 PM 5.21 41.378 0.508 8.01 14.08 11.81
12/10/2020 9:15:00 PM 5.14 41.252 0.508 8 9.59 11.77
12/10/2020 9:30:00 PM 5.08 41.144 0.508 8 9.26 11.74
12/10/2020 9:45:00 PM 5.02 41.036 0.508 7.99 9.89 11.73
12/10/2020 10:00:00 PM 4.96 40.928 0.508 7.99 9.53 11.71
12/10/2020 10:15:00 PM 4.9 40.82 0.508 7.99 9.61 11.7
12/10/2020 10:30:00 PM 4.85 40.73 0.508 7.99 11.03 11.68
12/10/2020 10:45:00 PM 4.8 40.64 0.508 7.99 9.45 11.68
12/10/2020 11:00:00 PM 4.75 40.55 0.508 7.98 9.98 11.66
12/10/2020 11:15:00 PM 4.7 40.46 0.507 7.98 10.95 11.68
12/10/2020 11:30:00 PM 4.66 40.388 0.507 7.98 10.19 11.66
12/10/2020 11:45:00 PM 4.61 40.298 0.508 7.98 10.02 11.63
12/11/2020 12:00:00 AM 4.58 40.244 0.507 7.98 9.17 11.63
12/11/2020 12:15:00 AM 4.54 40.172 0.507 7.97 10.67 11.63
12/11/2020 12:30:00 AM 4.5 40.1 0.507 7.97 10.21 11.61
12/11/2020 12:45:00 AM 4.47 40.046 0.507 7.97 12.71 11.6
12/11/2020 1:00:00 AM 4.44 39.992 0.507 7.96 10.2 11.58
12/11/2020 1:15:00 AM 4.39 39.902 0.507 7.96 11.45 11.57
12/11/2020 1:30:00 AM 4.36 39.848 0.508 7.96 8.93 11.55
12/11/2020 1:45:00 AM 4.33 39.794 0.508 7.95 10.94 11.55
12/11/2020 2:00:00 AM 4.29 39.722 0.508 7.95 12.26 11.53
12/11/2020 2:15:00 AM 4.25 39.65 0.508 7.94 9.64 11.52
12/11/2020 2:30:00 AM 4.22 39.596 0.508 7.94 10.07 11.5
12/11/2020 2:45:00 AM 4.18 39.524 0.508 7.93 9.74 11.5
12/11/2020 3:00:00 AM 4.14 39.452 0.508 7.93 11.93 11.47
12/11/2020 3:15:00 AM 4.11 39.398 0.509 7.92 8.86 11.47
12/11/2020 3:30:00 AM 4.06 39.308 0.509 7.92 14.73 11.46
12/11/2020 3:45:00 AM 4.03 39.254 0.509 7.91 9.4 11.46
12/11/2020 4:00:00 AM 3.99 39.182 0.509 7.91 13.31 11.46
12/11/2020 4:15:00 AM 3.96 39.128 0.509 7.91 15.55 11.45
12/11/2020 4:30:00 AM 3.93 39.074 0.509 7.9 11.33 11.46
12/11/2020 4:45:00 AM 3.88 38.984 0.509 7.9 12.11 11.47
12/11/2020 5:00:00 AM 3.84 38.912 0.51 7.9 10.64 11.47
12/11/2020 5:15:00 AM 3.81 38.858 0.51 7.9 10.81 11.49
12/11/2020 5:30:00 AM 3.77 38.786 0.51 7.89 10.87 11.5
12/11/2020 5:45:00 AM 3.72 38.696 0.511 7.9 10.43 11.53
12/11/2020 6:00:00 AM 3.68 38.624 0.511 7.89 8.86 11.54
12/11/2020 6:15:00 AM 3.64 38.552 0.511 7.9 9.27 11.56
12/11/2020 6:30:00 AM 3.59 38.462 0.512 7.89 8.61 11.58
12/11/2020 6:45:00 AM 3.55 38.39 0.512 7.89 8.38 11.61
12/11/2020 7:00:00 AM 3.51 38.318 0.512 7.89 8.44 11.6
12/11/2020 7:15:00 AM 3.47 38.246 0.513 7.89 9.28 11.61
12/11/2020 7:30:00 AM 3.43 38.174 0.513 7.89 10.39 11.66
12/11/2020 7:45:00 AM 3.41 38.138 0.513 7.89 9.7 11.71
12/11/2020 8:00:00 AM 3.37 38.066 0.513 7.89 8.33 11.76
12/11/2020 8:15:00 AM 3.35 38.03 0.513 7.89 8.74 11.85
12/11/2020 8:30:00 AM 3.33 37.994 0.512 7.9 8.05 11.94
12/11/2020 8:45:00 AM 3.31 37.958 0.512 7.9 8.71 12.06
12/11/2020 9:00:00 AM 3.32 37.976 0.512 7.91 8.95 12.21
12/11/2020 9:15:00 AM 3.38 38.084 0.512 7.91 9.32 12.37
12/11/2020 9:30:00 AM 3.43 38.174 0.511 7.92 9.97 12.55
12/11/2020 9:45:00 AM 3.51 38.318 0.511 7.94 10 12.74
12/11/2020 10:00:00 AM 3.62 38.516 0.51 7.94 9.93 12.96
12/11/2020 10:15:00 AM 3.72 38.696 0.51 7.95 9.75 13.17
12/11/2020 10:30:00 AM 3.82 38.876 0.509 7.97 9.26 13.36
12/11/2020 10:45:00 AM 3.98 39.164 0.509 7.98 10.5 13.58
12/11/2020 11:00:00 AM 4.18 39.524 0.508 7.99 10.38 13.79
12/11/2020 11:15:00 AM 4.37 39.866 0.507 8.01 9.23 13.97
12/11/2020 11:30:00 AM 4.52 40.136 0.507 8.01 10.17 14.14
12/11/2020 11:45:00 AM 4.76 40.568 0.506 8.01 10.1 14.3
12/11/2020 12:00:00 PM 4.95 40.91 0.506 8 10.79 14.43
12/11/2020 12:15:00 PM 5.09 41.162 0.506 8 9.87 14.56
12/11/2020 12:30:00 PM 5.18 41.324 0.506 8.01 10.34 14.58
12/11/2020 12:45:00 PM 5.33 41.594 0.505 8.01 9.66 14.71
12/11/2020 1:00:00 PM 5.5 41.9 0.505 8.03 7.69 14.8
12/11/2020 1:15:00 PM 5.63 42.134 0.505 8.03 8.95 14.85
12/11/2020 1:30:00 PM 5.74 42.332 0.504 8.06 8.98 14.9
12/11/2020 1:45:00 PM 5.8 42.44 0.505 8.08 9.26 14.89
12/11/2020 2:00:00 PM 5.93 42.674 0.505 8.03 9.48 14.92
12/11/2020 2:15:00 PM 5.99 42.782 0.505 8.12 8.62 14.89
12/11/2020 2:30:00 PM 6.05 42.89 0.505 8.04 9.02 14.89
12/11/2020 2:45:00 PM 6.09 42.962 0.505 8.13 8.93 14.77
12/11/2020 3:00:00 PM 6.14 43.052 0.506 8.06 9.49 14.7
12/11/2020 3:15:00 PM 6.18 43.124 0.506 8.14 10.05 14.59
12/11/2020 3:30:00 PM 6.2 43.16 0.506 8.06 11.7 14.46
12/11/2020 3:45:00 PM 6.2 43.16 0.506 8.14 13.26 14.34
12/11/2020 4:00:00 PM 6.2 43.16 0.507 8.07 18.5 14.18
12/11/2020 4:15:00 PM 6.16 43.088 0.507 8.07 17.91 14.04
12/11/2020 4:30:00 PM 6.11 42.998 0.508 8.07 11.78 13.82
12/11/2020 4:45:00 PM 6.04 42.872 0.508 8.07 11.47 13.58
12/11/2020 5:00:00 PM 5.97 42.746 0.509 8.08 13.12 13.37
12/11/2020 5:15:00 PM 5.9 42.62 0.509 8.06 13.03 13.17
12/11/2020 5:30:00 PM 5.82 42.476 0.51 8.05 12.01 13
12/11/2020 5:45:00 PM 5.75 42.35 0.51 8.05 12.07 12.86
12/11/2020 6:00:00 PM 5.68 42.224 0.51 8.04 9.98 12.71
12/11/2020 6:15:00 PM 5.6 42.08 0.511 8.04 10.09 12.62
12/11/2020 6:30:00 PM 5.53 41.954 0.511 8.03 10.03 12.5
12/11/2020 6:45:00 PM 5.46 41.828 0.511 8.02 10.1 12.47
12/11/2020 7:00:00 PM 5.4 41.72 0.512 8.02 10 12.38
12/11/2020 7:15:00 PM 5.34 41.612 0.512 8.01 10.79 12.31
12/11/2020 7:30:00 PM 5.28 41.504 0.512 8.01 15.25 12.27
12/11/2020 7:45:00 PM 5.23 41.414 0.512 8 9.22 12.22
12/11/2020 8:00:00 PM 5.18 41.324 0.512 8 8.34 12.17
12/11/2020 8:15:00 PM 5.14 41.252 0.512 7.99 9.19 12.15
12/11/2020 8:30:00 PM 5.09 41.162 0.512 7.99 9.09 12.11
12/11/2020 8:45:00 PM 5.06 41.108 0.512 7.99 10.64 12.08
12/11/2020 9:00:00 PM 5.03 41.054 0.512 7.98 8.95 12.05
12/11/2020 9:15:00 PM 4.99 40.982 0.511 7.98 11.3 12.01
12/11/2020 9:30:00 PM 4.95 40.91 0.511 7.98 10.01 11.97
12/11/2020 9:45:00 PM 4.91 40.838 0.512 7.98 9.6 11.93
12/11/2020 10:00:00 PM 4.87 40.766 0.511 7.97 12.11 11.89
12/11/2020 10:15:00 PM 4.83 40.694 0.511 7.97 10.15 11.87
12/11/2020 10:30:00 PM 4.79 40.622 0.511 7.97 11.01 11.82
12/11/2020 10:45:00 PM 4.75 40.55 0.511 7.97 9.5 11.81
12/11/2020 11:00:00 PM 4.72 40.496 0.511 7.97 10.95 11.77
12/11/2020 11:15:00 PM 4.68 40.424 0.511 7.97 10.53 11.76
12/11/2020 11:30:00 PM 4.66 40.388 0.511 7.96 13.48 11.76
12/11/2020 11:45:00 PM 4.63 40.334 0.511 7.96 11.53 11.73
12/12/2020 12:00:00 AM 4.61 40.298 0.511 7.96 9.79 11.72
12/12/2020 12:15:00 AM 4.58 40.244 0.51 7.96 10.79 11.7
12/12/2020 12:30:00 AM 4.56 40.208 0.51 7.95 9.42 11.68
12/12/2020 12:45:00 AM 4.55 40.19 0.51 7.95 10.91 11.65
12/12/2020 1:00:00 AM 4.53 40.154 0.51 7.95 9.91 11.63
12/12/2020 1:15:00 AM 4.52 40.136 0.51 7.94 9.48 11.61
12/12/2020 1:30:00 AM 4.51 40.118 0.51 7.94 10 11.6
12/12/2020 1:45:00 AM 4.5 40.1 0.51 7.94 11.86 11.56
12/12/2020 2:00:00 AM 4.51 40.118 0.51 7.94 11.95 11.54
12/12/2020 2:15:00 AM 4.5 40.1 0.51 7.93 9.53 11.5
12/12/2020 2:30:00 AM 4.48 40.064 0.51 7.93 10.83 11.47
12/12/2020 2:45:00 AM 4.46 40.028 0.51 7.93 10.49 11.46
12/12/2020 3:00:00 AM 4.44 39.992 0.51 7.92 9.43 11.45
12/12/2020 3:15:00 AM 4.42 39.956 0.51 7.91 9.83 11.41
12/12/2020 3:30:00 AM 4.39 39.902 0.51 7.91 11.04 11.39
12/12/2020 3:45:00 AM 4.39 39.902 0.51 7.9 10 11.38
12/12/2020 4:00:00 AM 4.36 39.848 0.51 7.9 11.33 11.36
12/12/2020 4:15:00 AM 4.33 39.794 0.51 7.9 10.6 11.36
12/12/2020 4:30:00 AM 4.29 39.722 0.51 7.89 9.78 11.36
12/12/2020 4:45:00 AM 4.27 39.686 0.51 7.89 8.98 11.34
12/12/2020 5:00:00 AM 4.24 39.632 0.51 7.89 9.99 11.32
12/12/2020 5:15:00 AM 4.22 39.596 0.51 7.88 10.04 11.33
12/12/2020 5:30:00 AM 4.2 39.56 0.51 7.89 11.65 11.34
12/12/2020 5:45:00 AM 4.18 39.524 0.51 7.88 9.96 11.33
12/12/2020 6:00:00 AM 4.17 39.506 0.51 7.88 9.4 11.33
12/12/2020 6:15:00 AM 4.16 39.488 0.51 7.88 10.04 11.33
12/12/2020 6:30:00 AM 4.15 39.47 0.511 7.87 9.77 11.34
12/12/2020 6:45:00 AM 4.15 39.47 0.511 7.87 10.68 11.34
12/12/2020 7:00:00 AM 4.14 39.452 0.511 7.87 8.98 11.34
12/12/2020 7:15:00 AM 4.14 39.452 0.511 7.87 9.54 11.35
12/12/2020 7:30:00 AM 4.13 39.434 0.511 7.87 9.41 11.35
12/12/2020 7:45:00 AM 4.12 39.416 0.511 7.87 10.22 11.37
12/12/2020 8:00:00 AM 4.12 39.416 0.511 7.86 8.92 11.43
12/12/2020 8:15:00 AM 4.13 39.434 0.511 7.87 9.09 11.5
12/12/2020 8:30:00 AM 4.14 39.452 0.51 7.87 9.7 11.58
12/12/2020 8:45:00 AM 4.16 39.488 0.51 7.87 9.52 11.69
12/12/2020 9:00:00 AM 4.18 39.524 0.51 7.87 9.82 11.78
12/12/2020 9:15:00 AM 4.21 39.578 0.509 7.88 11.27 11.91
12/12/2020 9:30:00 AM 4.24 39.632 0.509 7.88 10 12.03
12/12/2020 9:45:00 AM 4.3 39.74 0.509 7.89 11.62 12.25
12/12/2020 10:00:00 AM 4.35 39.83 0.509 7.89 10.61 12.4
12/12/2020 10:15:00 AM 4.39 39.902 0.509 7.9 11.85 12.49
12/12/2020 10:30:00 AM 4.46 40.028 0.509 7.91 11.59 12.68
12/12/2020 10:45:00 AM 4.53 40.154 0.509 7.92 11.59 12.84
12/12/2020 11:00:00 AM 4.61 40.298 0.508 7.93 10.68 13.01
12/12/2020 11:15:00 AM 4.78 40.604 0.508 7.94 12.36 13.26
12/12/2020 11:30:00 AM 4.94 40.892 0.508 7.95 10.16 13.5
12/12/2020 11:45:00 AM 5.08 41.144 0.507 7.96 9.11 13.68
12/12/2020 12:00:00 PM 5.26 41.468 0.507 7.96 10.62 13.86
12/12/2020 12:15:00 PM 5.42 41.756 0.506 7.95 9.16 14
12/12/2020 12:30:00 PM 5.56 42.008 0.506 7.95 9.81 14.12
12/12/2020 12:45:00 PM 5.69 42.242 0.506 7.96 10.46 14.22
12/12/2020 1:00:00 PM 5.88 42.584 0.505 7.97 9.53 14.36
12/12/2020 1:15:00 PM 6.05 42.89 0.505 7.97 10.59 14.45
12/12/2020 1:30:00 PM 6.17 43.106 0.506 7.99 10.05 14.54
12/12/2020 1:45:00 PM 6.3 43.34 0.506 7.99 9.87 14.56
12/12/2020 2:00:00 PM 6.38 43.484 0.506 8 9.3 14.58
12/12/2020 2:15:00 PM 6.51 43.718 0.506 8.01 14.61 14.66
12/12/2020 2:30:00 PM 6.55 43.79 0.507 8.03 10.01 14.58
12/12/2020 2:45:00 PM 6.61 43.898 0.507 8.04 11.13 14.52
12/12/2020 3:00:00 PM 6.68 44.024 0.508 8.04 9.1 14.48
12/12/2020 3:15:00 PM 6.73 44.114 0.508 8.05 9.38 14.4
12/12/2020 3:30:00 PM 6.75 44.15 0.509 8.06 9.47 14.31
12/12/2020 3:45:00 PM 6.76 44.168 0.509 8.06 12.39 14.18
12/12/2020 4:00:00 PM 6.76 44.168 0.51 8.06 11 14.02
12/12/2020 4:15:00 PM 6.74 44.132 0.51 8.06 11.91 13.82
12/12/2020 4:30:00 PM 6.73 44.114 0.511 8.06 10.74 13.57
12/12/2020 4:45:00 PM 6.73 44.114 0.512 8.05 9.73 13.37
12/12/2020 5:00:00 PM 6.71 44.078 0.512 8.04 10.18 13.14
12/12/2020 5:15:00 PM 6.7 44.06 0.513 8.03 9.9 12.92
12/12/2020 5:30:00 PM 6.69 44.042 0.513 8.02 10.21 12.74
12/12/2020 5:45:00 PM 6.69 44.042 0.514 8.01 11.09 12.55
12/12/2020 6:00:00 PM 6.7 44.06 0.514 8 10.88 12.39
12/12/2020 6:15:00 PM 6.71 44.078 0.515 7.99 10.11 12.22
12/12/2020 6:30:00 PM 6.71 44.078 0.515 7.98 14.21 12.08
12/12/2020 6:45:00 PM 6.72 44.096 0.515 7.97 10.4 11.95
12/12/2020 7:00:00 PM 6.73 44.114 0.516 7.96 12.33 11.85
12/12/2020 7:15:00 PM 6.73 44.114 0.516 7.95 9.88 11.75
12/12/2020 7:30:00 PM 6.73 44.114 0.516 7.94 10.46 11.67
12/12/2020 7:45:00 PM 6.73 44.114 0.516 7.93 9.58 11.6
12/12/2020 8:00:00 PM 6.73 44.114 0.516 7.92 9.51 11.53
12/12/2020 8:15:00 PM 6.72 44.096 0.516 7.92 12.1 11.46
12/12/2020 8:30:00 PM 6.72 44.096 0.516 7.92 9.71 11.4
12/12/2020 8:45:00 PM 6.72 44.096 0.516 7.91 11.06 11.34
12/12/2020 9:00:00 PM 6.72 44.096 0.516 7.91 10.57 11.29
12/12/2020 9:15:00 PM 6.71 44.078 0.516 7.9 10.58 11.25
12/12/2020 9:30:00 PM 6.71 44.078 0.516 7.9 10.03 11.18
12/12/2020 9:45:00 PM 6.71 44.078 0.515 7.9 10.09 11.13
12/12/2020 10:00:00 PM 6.71 44.078 0.516 7.89 9.12 11.06
12/12/2020 10:15:00 PM 6.71 44.078 0.516 7.88 9.42 11.01
12/12/2020 10:30:00 PM 6.72 44.096 0.515 7.88 9.84 10.98
12/12/2020 10:45:00 PM 6.72 44.096 0.515 7.88 9.79 10.95
12/12/2020 11:00:00 PM 6.71 44.078 0.515 7.88 12.18 10.93
12/12/2020 11:15:00 PM 6.69 44.042 0.514 7.88 9.59 10.88
12/12/2020 11:30:00 PM 6.67 44.006 0.514 7.87 9.82 10.86
12/12/2020 11:45:00 PM 6.65 43.97 0.514 7.88 10.23 10.83
12/13/2020 12:00:00 AM 6.64 43.952 0.514 7.87 9.8 10.82
12/13/2020 12:15:00 AM 6.64 43.952 0.513 7.87 10.58 10.8
12/13/2020 12:30:00 AM 6.63 43.934 0.513 7.87 10.86 10.77
12/13/2020 12:45:00 AM 6.62 43.916 0.513 7.88 9.45 10.74
12/13/2020 1:00:00 AM 6.62 43.916 0.513 7.87 11.63 10.73
12/13/2020 1:15:00 AM 6.63 43.934 0.513 7.87 10.91 10.7
12/13/2020 1:30:00 AM 6.64 43.952 0.513 7.87 10.88 10.67
12/13/2020 1:45:00 AM 6.64 43.952 0.513 7.87 10.9 10.64
12/13/2020 2:00:00 AM 6.65 43.97 0.513 7.87 11.25 10.6
12/13/2020 2:15:00 AM 6.66 43.988 0.513 7.86 11.46 10.56
12/13/2020 2:30:00 AM 6.67 44.006 0.513 7.86 10.84 10.53
12/13/2020 2:45:00 AM 6.68 44.024 0.512 7.85 11.2 10.51
12/13/2020 3:00:00 AM 6.69 44.042 0.512 7.85 10.4 10.47
12/13/2020 3:15:00 AM 6.69 44.042 0.512 7.85 11.17 10.44
12/13/2020 3:30:00 AM 6.68 44.024 0.512 7.85 12.59 10.4
12/13/2020 3:45:00 AM 6.68 44.024 0.513 7.84 11.13 10.39
12/13/2020 4:00:00 AM 6.67 44.006 0.513 7.84 11.7 10.36
12/13/2020 4:15:00 AM 6.67 44.006 0.513 7.83 12.79 10.35
12/13/2020 4:30:00 AM 6.66 43.988 0.512 7.83 11.3 10.33
12/13/2020 4:45:00 AM 6.64 43.952 0.512 7.83 12.03 10.31
12/13/2020 5:00:00 AM 6.63 43.934 0.512 7.82 11.6 10.28
12/13/2020 5:15:00 AM 6.62 43.916 0.512 7.82 10.97 10.26
12/13/2020 5:30:00 AM 6.6 43.88 0.512 7.82 13.84 10.27
12/13/2020 5:45:00 AM 6.59 43.862 0.512 7.82 11.82 10.26
12/13/2020 6:00:00 AM 6.57 43.826 0.512 7.82 14.16 10.25
12/13/2020 6:15:00 AM 6.55 43.79 0.512 7.81 11.54 10.23
12/13/2020 6:30:00 AM 6.51 43.718 0.512 7.81 11.05 10.24
12/13/2020 6:45:00 AM 6.5 43.7 0.512 7.81 14.09 10.23
12/13/2020 7:00:00 AM 6.49 43.682 0.512 7.81 10.66 10.23
12/13/2020 7:15:00 AM 6.46 43.628 0.511 7.81 12.13 10.25
12/13/2020 7:30:00 AM 6.44 43.592 0.511 7.81 13.1 10.25
12/13/2020 7:45:00 AM 6.44 43.592 0.511 7.81 9.97 10.29
12/13/2020 8:00:00 AM 6.46 43.628 0.51 7.81 12.02 10.38
12/13/2020 8:15:00 AM 6.48 43.664 0.51 7.81 9.43 10.48
12/13/2020 8:30:00 AM 6.52 43.736 0.51 7.82 9.68 10.56
12/13/2020 8:45:00 AM 6.57 43.826 0.509 7.82 9.83 10.8
12/13/2020 9:00:00 AM 6.58 43.844 0.509 7.84 10.59 11
12/13/2020 9:15:00 AM 6.61 43.898 0.509 7.85 11.77 11.15
12/13/2020 9:30:00 AM 6.67 44.006 0.508 7.86 10.46 11.3
12/13/2020 9:45:00 AM 6.72 44.096 0.508 7.87 11.41 11.45
12/13/2020 10:00:00 AM 6.76 44.168 0.508 7.87 11.53 11.6
12/13/2020 10:15:00 AM 6.79 44.222 0.508 7.88 11.78 11.68
12/13/2020 10:30:00 AM 6.82 44.276 0.508 7.89 12.15 11.81
12/13/2020 10:45:00 AM 6.89 44.402 0.508 7.9 12.57 12.03
12/13/2020 11:00:00 AM 6.93 44.474 0.508 7.91 11.44 12.14
12/13/2020 11:15:00 AM 6.93 44.474 0.508 7.92 11.5 12.12
12/13/2020 11:30:00 AM 6.94 44.492 0.508 7.92 10.42 12.09
12/13/2020 11:45:00 AM 6.96 44.528 0.508 7.93 12.19 12.12
12/13/2020 12:00:00 PM 6.99 44.582 0.508 7.94 12.1 12.25
12/13/2020 12:15:00 PM 7.01 44.618 0.507 7.95 15.42 12.37
12/13/2020 12:30:00 PM 7.04 44.672 0.507 7.96 11.46 12.41
12/13/2020 12:45:00 PM 7.06 44.708 0.507 7.97 10.42 12.51
12/13/2020 1:00:00 PM 7.08 44.744 0.507 7.98 11.3 12.54
12/13/2020 1:15:00 PM 7.11 44.798 0.507 7.98 9.2 12.65
12/13/2020 1:30:00 PM 7.14 44.852 0.507 7.99 8.28 12.77
12/13/2020 1:45:00 PM 7.15 44.87 0.507 8 9.79 12.7
12/13/2020 2:00:00 PM 7.15 44.87 0.508 8 8.93 12.64
12/13/2020 2:15:00 PM 7.17 44.906 0.508 8 9.08 12.67
12/13/2020 2:30:00 PM 7.21 44.978 0.508 8.01 8.32 12.8
12/13/2020 2:45:00 PM 7.22 44.996 0.508 8.02 7.62 12.83
12/13/2020 3:00:00 PM 7.24 45.032 0.508 8.02 8.05 12.83
12/13/2020 3:15:00 PM 7.26 45.068 0.508 8.03 8.82 12.89
12/13/2020 3:30:00 PM 7.25 45.05 0.508 8.03 8.19 12.84
12/13/2020 3:45:00 PM 7.25 45.05 0.508 8.03 8.82 12.73
12/13/2020 4:00:00 PM 7.24 45.032 0.508 8.03 8.86 12.62
12/13/2020 4:15:00 PM 7.22 44.996 0.509 8.02 8.29 12.46
12/13/2020 4:30:00 PM 7.2 44.96 0.509 8.01 9.29 12.31
12/13/2020 4:45:00 PM 7.18 44.924 0.51 8.01 10.19 12.16
12/13/2020 5:00:00 PM 7.16 44.888 0.51 8 13.11 12
12/13/2020 5:15:00 PM 7.14 44.852 0.51 7.99 14.91 11.85
12/13/2020 5:30:00 PM 7.1 44.78 0.51 7.98 8.79 11.71
12/13/2020 5:45:00 PM 7.07 44.726 0.511 7.97 8.09 11.59
12/13/2020 6:00:00 PM 7.05 44.69 0.511 7.96 8.88 11.49
12/13/2020 6:15:00 PM 7.02 44.636 0.511 7.95 8.05 11.4
12/13/2020 6:30:00 PM 7 44.6 0.511 7.94 9.79 11.34
12/13/2020 6:45:00 PM 6.98 44.564 0.511 7.94 8.18 11.26
12/13/2020 7:00:00 PM 6.96 44.528 0.512 7.93 8.69 11.21
12/13/2020 7:15:00 PM 6.94 44.492 0.512 7.93 8.04 11.16
12/13/2020 7:30:00 PM 6.92 44.456 0.512 7.92 8.87 11.13
12/13/2020 7:45:00 PM 6.9 44.42 0.511 7.92 9.97 11.1
12/13/2020 8:00:00 PM 6.88 44.384 0.512 7.91 7.56 11.08
12/13/2020 8:15:00 PM 6.86 44.348 0.512 7.9 8.33 11.04
12/13/2020 8:30:00 PM 6.83 44.294 0.511 7.9 9.89 11.01
12/13/2020 8:45:00 PM 6.79 44.222 0.512 7.91 7.25 10.98
12/13/2020 9:00:00 PM 6.76 44.168 0.512 7.9 10.88 10.96
12/13/2020 9:15:00 PM 6.74 44.132 0.512 7.9 9.03 10.91
12/13/2020 9:30:00 PM 6.71 44.078 0.512 7.9 8.24 10.86
12/13/2020 9:45:00 PM 6.67 44.006 0.513 7.9 10.25 10.82
12/13/2020 10:00:00 PM 6.65 43.97 0.513 7.89 9.72 10.79
12/13/2020 10:15:00 PM 6.63 43.934 0.513 7.89 8.18 10.78
12/13/2020 10:30:00 PM 6.62 43.916 0.513 7.89 8.78 10.76
12/13/2020 10:45:00 PM 6.6 43.88 0.513 7.88 8.93 10.75
12/13/2020 11:00:00 PM 6.57 43.826 0.513 7.88 9.66 10.75
12/13/2020 11:15:00 PM 6.55 43.79 0.513 7.88 8.48 10.71
12/13/2020 11:30:00 PM 6.55 43.79 0.513 7.88 9.26 10.74
12/13/2020 11:45:00 PM 6.54 43.772 0.51 7.88 8.06 10.73
12/14/2020 12:00:00 AM 6.53 43.754 0.497 7.88 11.67 10.72
12/14/2020 12:15:00 AM 6.52 43.736 0.511 7.88 8.51 10.7
12/14/2020 12:30:00 AM 6.51 43.718 0.491 7.87 8.19 10.71
12/14/2020 12:45:00 AM 6.51 43.718 0.505 7.87 11.94 10.69
12/14/2020 1:00:00 AM 6.51 43.718 0.513 7.87 11.84 10.69
12/14/2020 1:15:00 AM 6.5 43.7 0.513 7.87 9.16 10.67
12/14/2020 1:30:00 AM 6.49 43.682 0.513 7.87 8.51 10.68
12/14/2020 1:45:00 AM 6.49 43.682 0.513 7.87 8.88 10.67
12/14/2020 2:00:00 AM 6.48 43.664 0.513 7.86 10.93 10.65
12/14/2020 2:15:00 AM 6.47 43.646 0.513 7.86 9.06 10.65
12/14/2020 2:30:00 AM 6.46 43.628 0.513 7.86 9.75 10.65
12/14/2020 2:45:00 AM 6.45 43.61 0.513 7.86 9.66 10.62
12/14/2020 3:00:00 AM 6.44 43.592 0.513 7.86 10.09 10.59
12/14/2020 3:15:00 AM 6.43 43.574 0.513 7.86 11.07 10.58
12/14/2020 3:30:00 AM 6.42 43.556 0.514 7.85 9.72 10.59
12/14/2020 3:45:00 AM 6.41 43.538 0.514 7.85 8.7 10.58
12/14/2020 4:00:00 AM 6.4 43.52 0.514 7.85 8.84 10.56
12/14/2020 4:15:00 AM 6.38 43.484 0.514 7.84 11.48 10.54
12/14/2020 4:30:00 AM 6.37 43.466 0.514 7.84 11.81 10.54
12/14/2020 4:45:00 AM 6.36 43.448 0.514 7.84 11.19 10.53
12/14/2020 5:00:00 AM 6.35 43.43 0.515 7.84 10.9 10.53
12/14/2020 5:15:00 AM 6.34 43.412 0.515 7.84 11.59 10.52
12/14/2020 5:30:00 AM 6.33 43.394 0.515 7.84 8.42 10.52
12/14/2020 5:45:00 AM 6.31 43.358 0.514 7.83 9.42 10.53
12/14/2020 6:00:00 AM 6.29 43.322 0.514 7.83 10.37 10.52
12/14/2020 6:15:00 AM 6.26 43.268 0.514 7.83 9.28 10.51
12/14/2020 6:30:00 AM 6.22 43.196 0.512 7.82 13.52 10.5
12/14/2020 6:45:00 AM 6.17 43.106 0.509 7.82 11.42 10.51
12/14/2020 7:00:00 AM 6.12 43.016 0.509 7.82 9.88 10.53
12/14/2020 7:15:00 AM 6.06 42.908 0.51 7.82 11.49 10.51
12/14/2020 7:30:00 AM 5.99 42.782 0.511 7.82 10.98 10.54
12/14/2020 7:45:00 AM 5.94 42.692 0.513 7.81 10.98 10.54
12/14/2020 8:00:00 AM 5.88 42.584 0.52 7.81 10.5 10.55
12/14/2020 8:15:00 AM 5.83 42.494 0.524 7.81 11.86 10.6
12/14/2020 8:30:00 AM 5.79 42.422 0.524 7.81 11.92 10.62
12/14/2020 8:45:00 AM 5.73 42.314 0.522 7.82 13.6 10.68
12/14/2020 9:00:00 AM 5.7 42.26 0.522 7.82 15.03 10.74
12/14/2020 9:15:00 AM 5.65 42.17 0.522 7.82 13.99 10.81
12/14/2020 9:30:00 AM 5.64 42.152 0.52 7.83 12.16 10.9
12/14/2020 9:45:00 AM 5.63 42.134 0.521 7.83 11.3 10.99
12/14/2020 10:00:00 AM 5.65 42.17 0.519 7.83 16.13 11.16
12/14/2020 10:15:00 AM 5.66 42.188 0.519 7.83 12.67 11.29
12/14/2020 10:30:00 AM 5.67 42.206 0.521 7.82 11.8 11.41
12/14/2020 10:45:00 AM 5.69 42.242 0.52 7.84 10.23 11.56
12/14/2020 11:00:00 AM 5.71 42.278 0.518 7.85 12.65 11.65
12/14/2020 11:15:00 AM 5.74 42.332 0.517 7.85 12.82 11.79
12/14/2020 11:30:00 AM 5.78 42.404 0.516 7.87 10.85 11.98
12/14/2020 11:45:00 AM 5.82 42.476 0.514 7.88 11.95 12.13
12/14/2020 12:00:00 PM 5.85 42.53 0.514 7.89 10.22 12.3
12/14/2020 12:15:00 PM 5.87 42.566 0.513 7.9 10.74 12.34
12/14/2020 12:30:00 PM 5.89 42.602 0.513 7.91 10.01 12.43
12/14/2020 12:45:00 PM 5.9 42.62 0.512 7.92 9.38 12.46
12/14/2020 1:00:00 PM 5.93 42.674 0.511 7.93 9.59 12.62
12/14/2020 1:15:00 PM 5.94 42.692 0.51 7.94 10.12 12.63
12/14/2020 1:30:00 PM 5.94 42.692 0.51 7.94 9.49 12.66
12/14/2020 1:45:00 PM 6 42.8 0.509 7.95 11.99 12.85
12/14/2020 2:00:00 PM 6 42.8 0.508 7.97 9.22 13
12/14/2020 2:15:00 PM 5.98 42.764 0.508 7.97 10.43 12.93
12/14/2020 2:30:00 PM 5.98 42.764 0.507 7.98 13.15 12.88
12/14/2020 2:45:00 PM 5.98 42.764 0.506 7.98 11.99 12.92
12/14/2020 3:00:00 PM 5.97 42.746 0.505 7.98 10.43 12.84
12/14/2020 3:15:00 PM 5.97 42.746 0.504 7.98 9.5 12.82
12/14/2020 3:30:00 PM 5.97 42.746 0.503 7.99 11.1 12.87
12/14/2020 3:45:00 PM 5.94 42.692 0.503 7.99 9.95 12.83
12/14/2020 4:00:00 PM 5.92 42.656 0.502 7.99 10.03 12.8
12/14/2020 4:15:00 PM 5.88 42.584 0.502 7.99 10.5 12.69
12/14/2020 4:30:00 PM 5.84 42.512 0.502 7.98 10.99 12.59
12/14/2020 4:45:00 PM 5.81 42.458 0.502 7.98 11.55 12.46
12/14/2020 5:00:00 PM 5.75 42.35 0.503 7.97 11.67 12.36
12/14/2020 5:15:00 PM 5.7 42.26 0.503 7.96 12.39 12.19
12/14/2020 5:30:00 PM 5.64 42.152 0.502 7.95 13.98 12.08
12/14/2020 5:45:00 PM 5.59 42.062 0.503 7.94 12.1 11.98
12/14/2020 6:00:00 PM 5.53 41.954 0.5 7.94 14.71 11.89
12/14/2020 6:15:00 PM 5.45 41.81 0.503 7.93 11.92 11.85
12/14/2020 6:30:00 PM 5.38 41.684 0.504 7.92 10.64 11.77
12/14/2020 6:45:00 PM 5.31 41.558 0.503 7.92 12.31 11.73
12/14/2020 7:00:00 PM 5.24 41.432 0.503 7.91 12.02 11.73
12/14/2020 7:15:00 PM 5.19 41.342 0.5 7.91 12.03 11.71
12/14/2020 7:30:00 PM 5.12 41.216 0.497 7.91 13.46 11.68
12/14/2020 7:45:00 PM 5.04 41.072 0.502 7.91 11.77 11.67
12/14/2020 8:00:00 PM 4.96 40.928 0.502 7.91 13.13 11.65
12/14/2020 8:15:00 PM 4.9 40.82 0.502 7.91 11.82 11.69
12/14/2020 8:30:00 PM 4.85 40.73 0.501 7.91 10.97 11.67
12/14/2020 8:45:00 PM 4.79 40.622 0.501 7.91 11.64 11.68
12/14/2020 9:00:00 PM 4.74 40.532 0.501 7.9 12.6 11.67
12/14/2020 9:15:00 PM 4.66 40.388 0.5 7.9 11.84 11.69
12/14/2020 9:30:00 PM 4.62 40.316 0.499 7.91 13.35 11.67
12/14/2020 9:45:00 PM 4.54 40.172 0.499 7.91 10.84 11.67
12/14/2020 10:00:00 PM 4.47 40.046 0.498 7.91 11.79 11.7
12/14/2020 10:15:00 PM 4.39 39.902 0.497 7.91 10.57 11.69
12/14/2020 10:30:00 PM 4.3 39.74 0.497 7.91 12.13 11.7
12/14/2020 10:45:00 PM 4.24 39.632 0.496 7.91 10.18 11.73
12/14/2020 11:00:00 PM 4.17 39.506 0.495 7.92 11.91 11.73
12/14/2020 11:15:00 PM 4.1 39.38 0.494 7.91 11.69 11.76
12/14/2020 11:30:00 PM 4.05 39.29 0.493 7.92 11.12 11.77
12/14/2020 11:45:00 PM 4 39.2 0.492 7.92 11.23 11.77
12/15/2020 12:00:00 AM 3.96 39.128 0.49 7.92 12.87 11.77
12/15/2020 12:15:00 AM 3.93 39.074 0.49 7.91 11.64 11.76
12/15/2020 12:30:00 AM 3.91 39.038 0.489 7.9 18.88 11.78
12/15/2020 12:45:00 AM 3.87 38.966 0.488 7.91 15.56 11.78
12/15/2020 1:00:00 AM 3.85 38.93 0.487 7.91 14.4 11.8
12/15/2020 1:15:00 AM 3.81 38.858 0.486 7.9 20.79 11.8
12/15/2020 1:30:00 AM 3.78 38.804 0.485 7.9 15.13 11.8
12/15/2020 1:45:00 AM 3.73 38.714 0.485 7.9 10.78 11.82
12/15/2020 2:00:00 AM 3.7 38.66 0.484 7.9 13.35 11.83
12/15/2020 2:15:00 AM 3.67 38.606 0.484 7.89 15.75 11.84
12/15/2020 2:30:00 AM 3.65 38.57 0.483 7.89 16.23 11.85
12/15/2020 2:45:00 AM 3.61 38.498 0.482 7.88 13.58 11.86
12/15/2020 3:00:00 AM 3.57 38.426 0.482 7.88 14.11 11.88
12/15/2020 3:15:00 AM 3.53 38.354 0.481 7.88 14.55 11.88
12/15/2020 3:30:00 AM 3.52 38.336 0.481 7.88 11.78 11.86
12/15/2020 3:45:00 AM 3.49 38.282 0.481 7.89 11.2 11.9
12/15/2020 4:00:00 AM 3.47 38.246 0.481 7.89 12.09 11.89
12/15/2020 4:15:00 AM 3.44 38.192 0.48 7.89 10.16 11.9
12/15/2020 4:30:00 AM 3.41 38.138 0.48 7.89 10.45 11.9
12/15/2020 4:45:00 AM 3.38 38.084 0.48 7.89 10.46 11.92
12/15/2020 5:00:00 AM 3.36 38.048 0.481 7.88 12.82 11.94
12/15/2020 5:15:00 AM 3.33 37.994 0.481 7.88 11.64 11.94
12/15/2020 5:30:00 AM 3.3 37.94 0.481 7.88 12.52 11.95
12/15/2020 5:45:00 AM 3.27 37.886 0.482 7.88 12.38 11.99
12/15/2020 6:00:00 AM 3.26 37.868 0.482 7.87 10.65 12
12/15/2020 6:15:00 AM 3.24 37.832 0.482 7.88 11.8 12.01
12/15/2020 6:30:00 AM 3.21 37.778 0.482 7.87 12.19 12.01
12/15/2020 6:45:00 AM 3.17 37.706 0.482 7.88 11.21 12.03
12/15/2020 7:00:00 AM 3.11 37.598 0.483 7.88 11.56 12.04
12/15/2020 7:15:00 AM 3.06 37.508 0.483 7.88 12.34 12.07
12/15/2020 7:30:00 AM 3.01 37.418 0.483 7.88 11.66 12.07
12/15/2020 7:45:00 AM 2.96 37.328 0.484 7.88 11.13 12.14
12/15/2020 8:00:00 AM 2.91 37.238 0.484 7.88 11.51 12.18
12/15/2020 8:15:00 AM 2.86 37.148 0.484 7.89 15.67 12.28
12/15/2020 8:30:00 AM 2.82 37.076 0.485 7.89 11.18 12.39
12/15/2020 8:45:00 AM 2.78 37.004 0.485 7.9 12.88 12.5
12/15/2020 9:00:00 AM 2.75 36.95 0.486 7.91 14.26 12.66
12/15/2020 9:15:00 AM 2.72 36.896 0.486 7.92 11.57 12.81
12/15/2020 9:30:00 AM 2.72 36.896 0.487 7.93 16.72 13.03
12/15/2020 9:45:00 AM 2.75 36.95 0.487 7.94 13.45 13.22
12/15/2020 10:00:00 AM 2.79 37.022 0.487 7.95 16.42 13.42
12/15/2020 10:15:00 AM 2.86 37.148 0.488 7.97 13.1 13.67
12/15/2020 10:30:00 AM 2.93 37.274 0.488 7.99 11.65 13.9
12/15/2020 10:45:00 AM 2.99 37.382 0.488 8.01 14.8 14.12
12/15/2020 11:00:00 AM 3.09 37.562 0.489 8.02 13.61 14.34
12/15/2020 11:15:00 AM 3.23 37.814 0.489 8.04 12.98 14.55
12/15/2020 11:30:00 AM 3.35 38.03 0.489 8.05 10.99 14.76
12/15/2020 11:45:00 AM 3.48 38.264 0.489 8.06 10.99 14.91
12/15/2020 12:00:00 PM 3.58 38.444 0.49 8.08 10.48 15.06
12/15/2020 12:15:00 PM 3.71 38.678 0.49 8.09 11.98 15.23
12/15/2020 12:30:00 PM 3.84 38.912 0.491 8.1 12.34 15.34
12/15/2020 12:45:00 PM 3.91 39.038 0.491 8.11 11.27 15.45
12/15/2020 1:00:00 PM 3.98 39.164 0.491 8.12 13.53 15.51
12/15/2020 1:15:00 PM 4.06 39.308 0.491 8.13 10.51 15.6
12/15/2020 1:30:00 PM 4.13 39.434 0.492 8.15 12.79 15.68
12/15/2020 1:45:00 PM 4.18 39.524 0.492 8.16 10.63 15.74
12/15/2020 2:00:00 PM 4.23 39.614 0.493 8.17 16.75 15.78
12/15/2020 2:15:00 PM 4.28 39.704 0.493 8.18 11.77 15.8
12/15/2020 2:30:00 PM 4.31 39.758 0.493 8.19 15.25 15.82
12/15/2020 2:45:00 PM 4.32 39.776 0.494 8.2 10.59 15.81
12/15/2020 3:00:00 PM 4.33 39.794 0.494 8.2 10.3 15.79
12/15/2020 3:15:00 PM 4.33 39.794 0.494 8.21 15.2 15.74
12/15/2020 3:30:00 PM 4.32 39.776 0.495 8.21 13.34 15.69
12/15/2020 3:45:00 PM 4.31 39.758 0.495 8.22 15.72 15.59
12/15/2020 4:00:00 PM 4.27 39.686 0.495 8.21 12.27 15.46
12/15/2020 4:15:00 PM 4.23 39.614 0.496 8.21 12.68 15.3
12/15/2020 4:30:00 PM 4.17 39.506 0.497 8.21 11.94 15.11
12/15/2020 4:45:00 PM 4.11 39.398 0.497 8.2 16.08 14.87
12/15/2020 5:00:00 PM 4.04 39.272 0.498 8.19 11.9 14.67
12/15/2020 5:15:00 PM 3.98 39.164 0.499 8.18 11.85 14.46
12/15/2020 5:30:00 PM 3.92 39.056 0.5 8.17 10.9 14.24
12/15/2020 5:45:00 PM 3.86 38.948 0.5 8.15 11.02 14.07
12/15/2020 6:00:00 PM 3.8 38.84 0.501 8.14 11.3 13.91
12/15/2020 6:15:00 PM 3.74 38.732 0.502 8.13 15.4 13.76
12/15/2020 6:30:00 PM 3.68 38.624 0.502 8.12 10.6 13.63
12/15/2020 6:45:00 PM 3.62 38.516 0.503 8.1 15.32 13.51
12/15/2020 7:00:00 PM 3.57 38.426 0.503 8.1 11.91 13.41
12/15/2020 7:15:00 PM 3.53 38.354 0.504 8.09 12.09 13.35
12/15/2020 7:30:00 PM 3.47 38.246 0.504 8.08 13.04 13.29
12/15/2020 7:45:00 PM 3.41 38.138 0.505 8.08 10.76 13.24
12/15/2020 8:00:00 PM 3.36 38.048 0.505 8.07 11.8 13.19
12/15/2020 8:15:00 PM 3.31 37.958 0.505 8.07 14.27 13.16
12/15/2020 8:30:00 PM 3.25 37.85 0.506 8.06 10.63 13.12
12/15/2020 8:45:00 PM 3.2 37.76 0.506 8.06 10.9 13.08
12/15/2020 9:00:00 PM 3.15 37.67 0.507 8.06 13.37 13.06
12/15/2020 9:15:00 PM 3.07 37.526 0.51 8.05 26.3 13.04
12/15/2020 9:30:00 PM 2.99 37.382 0.514 8.05 12.58 12.99
12/15/2020 9:45:00 PM 2.91 37.238 0.517 8.05 10.78 12.99
12/15/2020 10:00:00 PM 2.83 37.094 0.52 8.05 14.31 12.94
12/15/2020 10:15:00 PM 2.77 36.986 0.522 8.04 21.31 12.92
12/15/2020 10:30:00 PM 2.74 36.932 0.523 8.04 10.89 12.9
12/15/2020 10:45:00 PM 2.71 36.878 0.523 8.04 11.38 12.9
12/15/2020 11:00:00 PM 2.7 36.86 0.521 8.04 10.83 12.87
12/15/2020 11:15:00 PM 2.68 36.824 0.519 8.04 31.42 12.84
12/15/2020 11:30:00 PM 2.66 36.788 0.518 8.04 13.89 12.82
12/15/2020 11:45:00 PM 2.63 36.734 0.517 8.04 10.9 12.81
12/16/2020 12:00:00 AM 2.61 36.698 0.516 8.04 10.67 12.81
12/16/2020 12:15:00 AM 2.59 36.662 0.514 8.04 10.59 12.81
12/16/2020 12:30:00 AM 2.56 36.608 0.513 8.04 10.39 12.8
12/16/2020 12:45:00 AM 2.52 36.536 0.513 8.04 10.71 12.8
12/16/2020 1:00:00 AM 2.49 36.482 0.513 8.04 12.59 12.79
12/16/2020 1:15:00 AM 2.44 36.392 0.513 8.04 11.2 12.76
12/16/2020 1:30:00 AM 2.4 36.32 0.513 8.04 9.9 12.78
12/16/2020 1:45:00 AM 2.36 36.248 0.513 8.04 9.92 12.76
12/16/2020 2:00:00 AM 2.33 36.194 0.513 8.03 12.16 12.76
12/16/2020 2:15:00 AM 2.29 36.122 0.513 8.03 9.6 12.75
12/16/2020 2:30:00 AM 2.25 36.05 0.513 8.02 10.36 12.73
12/16/2020 2:45:00 AM 2.21 35.978 0.513 8.03 10.83 12.73
12/16/2020 3:00:00 AM 2.17 35.906 0.513 8.02 11.25 12.72
12/16/2020 3:15:00 AM 2.14 35.852 0.514 8.02 10.11 12.7
12/16/2020 3:30:00 AM 2.11 35.798 0.514 8.02 9.66 12.7
12/16/2020 3:45:00 AM 2.08 35.744 0.514 8.01 10.55 12.7
12/16/2020 4:00:00 AM 2.05 35.69 0.514 8 10.75 12.69
12/16/2020 4:15:00 AM 2.02 35.636 0.515 8 9.44 12.67
12/16/2020 4:30:00 AM 1.99 35.582 0.515 8 9.63 12.67
12/16/2020 4:45:00 AM 1.96 35.528 0.515 7.99 9.72 12.67
12/16/2020 5:00:00 AM 1.93 35.474 0.515 7.99 9.37 12.66
12/16/2020 5:15:00 AM 1.91 35.438 0.515 7.99 8.94 12.66
12/16/2020 5:30:00 AM 1.88 35.384 0.515 7.98 9.65 12.66
12/16/2020 5:45:00 AM 1.87 35.366 0.515 7.98 10.76 12.65
12/16/2020 6:00:00 AM 1.85 35.33 0.516 7.97 10.62 12.66
12/16/2020 6:15:00 AM 1.83 35.294 0.515 7.97 10.1 12.66
12/16/2020 6:30:00 AM 1.8 35.24 0.516 7.97 10.07 12.67
12/16/2020 6:45:00 AM 1.77 35.186 0.516 7.97 10.51 12.68
12/16/2020 7:00:00 AM 1.75 35.15 0.516 7.97 9.63 12.68
12/16/2020 7:15:00 AM 1.73 35.114 0.516 7.97 9.53 12.69
12/16/2020 7:30:00 AM 1.71 35.078 0.517 7.96 9.69 12.7
12/16/2020 7:45:00 AM 1.69 35.042 0.517 7.96 11.08 12.71
12/16/2020 8:00:00 AM 1.67 35.006 0.517 7.96 10.18 12.75
12/16/2020 8:15:00 AM 1.66 34.988 0.518 7.96 9.77 12.77
12/16/2020 8:30:00 AM 1.65 34.97 0.518 7.96 10.62 12.87
12/16/2020 8:45:00 AM 1.65 34.97 0.518 7.96 9.4 12.95
12/16/2020 9:00:00 AM 1.65 34.97 0.519 7.97 9.89 13.03
12/16/2020 9:15:00 AM 1.66 34.988 0.519 7.98 10.04 13.18
12/16/2020 9:30:00 AM 1.68 35.024 0.519 7.98 11.76 13.31
12/16/2020 9:45:00 AM 1.69 35.042 0.526 7.99 12.64 13.36
12/16/2020 10:00:00 AM 1.72 35.096 0.524 7.99 11 13.4
12/16/2020 10:15:00 AM 1.73 35.114 0.522 8 11.75 13.51
12/16/2020 10:30:00 AM 1.74 35.132 0.521 8 11.14 13.6
12/16/2020 10:45:00 AM 1.7 35.06 0.52 8.01 10.53 13.72
12/16/2020 11:00:00 AM 1.65 34.97 0.52 8.02 10.28 13.79
12/16/2020 11:15:00 AM 1.62 34.916 0.52 8.02 10.4 13.93
12/16/2020 11:30:00 AM 1.65 34.97 0.519 8.04 11.09 14.09
12/16/2020 11:45:00 AM 1.58 34.844 0.519 8.04 10.45 14.15
12/16/2020 12:00:00 PM 1.59 34.862 0.519 8.05 11.11 14.24
12/16/2020 12:15:00 PM 1.55 34.79 0.519 8.06 10.66 14.33
12/16/2020 12:30:00 PM 1.52 34.736 0.518 8.06 10.51 14.42
12/16/2020 12:45:00 PM 1.46 34.628 0.518 8.08 10.79 14.48
12/16/2020 1:00:00 PM 1.42 34.556 0.518 8.08 17.24 14.56
12/16/2020 1:15:00 PM 1.35 34.43 0.517 8.09 10.67 14.59
12/16/2020 1:30:00 PM 1.27 34.286 0.517 8.1 11.64 14.63
12/16/2020 1:45:00 PM 1.13 34.034 0.516 8.1 12.52 14.66
12/16/2020 2:00:00 PM 1.08 33.944 0.515 8.11 11.36 14.69
12/16/2020 2:15:00 PM 1.02 33.836 0.515 8.11 11.14 14.7
12/16/2020 2:30:00 PM 0.88 33.584 0.514 8.11 10.93 14.71
12/16/2020 2:45:00 PM 0.78 33.404 0.514 8.12 10.69 14.72
12/16/2020 3:00:00 PM 0.74 33.332 0.513 8.12 10.84 14.72
12/16/2020 3:15:00 PM 0.69 33.242 0.513 8.12 10.22 14.72
12/16/2020 3:30:00 PM 0.65 33.17 0.512 8.11 9.96 14.73
12/16/2020 3:45:00 PM 0.62 33.116 0.512 8.11 10.6 14.71
12/16/2020 4:00:00 PM 0.55 32.99 0.513 8.11 15.79 14.64
12/16/2020 4:15:00 PM 0.42 32.756 0.512 8.1 12.13 14.56
12/16/2020 4:30:00 PM 0.26 32.468 0.511 8.1 11.85 14.47
12/16/2020 4:45:00 PM 0.13 32.234 0.512 8.09 11.78 14.45
12/16/2020 5:00:00 PM 0.11 32.198 0.512 8.09 17.41 14.38
12/16/2020 5:15:00 PM 0.08 32.144 0.512 8.08 12.73 14.33
12/16/2020 5:30:00 PM 0.05 32.09 0.512 8.07 12.37 14.24
12/16/2020 5:45:00 PM 0.03 32.054 0.512 8.06 12.34 14.21
12/16/2020 6:00:00 PM 0 32 0.512 8.06 11.59 14.18
12/16/2020 6:15:00 PM 0 32 0.512 8.05 11.79 14.13
12/16/2020 6:30:00 PM 0 32 0.513 8.04 10.67 14.09
12/16/2020 6:45:00 PM 0 32 0.513 8.03 10.67 14.06
12/16/2020 7:00:00 PM -0.01 31.982 0.514 8.02 12.02 13.98
12/16/2020 7:15:00 PM 0 32 0.514 8.01 15.03 13.95
12/16/2020 7:30:00 PM 0 32 0.514 8 12.82 13.94
12/16/2020 7:45:00 PM 0.02 32.036 0.515 8 13.88 13.89
12/16/2020 8:00:00 PM 0.01 32.018 0.514 7.99 25.53 13.85
12/16/2020 8:15:00 PM 0 32 0.515 7.98 26.33 13.81
12/16/2020 8:30:00 PM 0 32 0.515 7.98 24.02 13.8
12/16/2020 8:45:00 PM 0 32 0.515 7.97 12.27 13.77
12/16/2020 9:00:00 PM -0.03 31.946 0.515 7.97 17.12 13.8
12/16/2020 9:15:00 PM -0.02 31.964 0.515 7.97 16.9 13.76
12/16/2020 9:30:00 PM -0.02 31.964 0.515 7.96 14.91 13.72
12/16/2020 9:45:00 PM -0.02 31.964 0.515 7.95 12.52 13.68
12/16/2020 10:00:00 PM -0.02 31.964 0.515 7.95 12.05 13.64
12/16/2020 10:15:00 PM -0.01 31.982 0.471 7.94 12.06 13.59
12/16/2020 10:30:00 PM -0.01 31.982 0.515 7.94 10.9 13.55
12/16/2020 10:45:00 PM 0 32 0.515 7.93 10.84 13.51
12/16/2020 11:00:00 PM -0.01 31.982 0.515 7.93 13.65 13.48
12/16/2020 11:15:00 PM 0 32 0.515 7.92 11.39 13.47
12/16/2020 11:30:00 PM -0.01 31.982 0.515 7.92 12.69 13.46
12/16/2020 11:45:00 PM -0.01 31.982 0.515 7.91 11.23 13.41
12/17/2020 12:00:00 AM 0 32 0.514 7.9 10.52 13.39
12/17/2020 12:15:00 AM 0 32 0.514 7.89 11.58 13.35
12/17/2020 12:30:00 AM -0.01 31.982 0.515 7.89 10.9 13.33
12/17/2020 12:45:00 AM 0 32 0.515 7.88 11.11 13.32
12/17/2020 1:00:00 AM 0 32 0.514 7.88 10.74 13.27
12/17/2020 1:15:00 AM 0 32 0.514 7.88 10.68 13.25
12/17/2020 1:30:00 AM 0 32 0.514 7.87 10.54 13.24
12/17/2020 1:45:00 AM 0 32 0.514 7.87 11.55 13.2
12/17/2020 2:00:00 AM 0 32 0.514 7.87 11.11 13.18
12/17/2020 2:15:00 AM 0 32 0.514 7.86 11.67 13.17
12/17/2020 2:30:00 AM -0.01 31.982 0.514 7.86 10.9 13.19
12/17/2020 2:45:00 AM -0.01 31.982 0.514 7.85 11.32 13.17
12/17/2020 3:00:00 AM -0.01 31.982 0.514 7.85 11.6 13.14
12/17/2020 3:15:00 AM -0.01 31.982 0.514 7.85 10.25 13.13
12/17/2020 3:30:00 AM -0.01 31.982 0.514 7.84 10.75 13.13
12/17/2020 3:45:00 AM 0 32 0.514 7.83 10.61 13.12
12/17/2020 4:00:00 AM 0 32 0.514 7.83 10.31 13.11
12/17/2020 4:15:00 AM 0 32 0.514 7.83 11.06 13.08
12/17/2020 4:30:00 AM 0.01 32.018 0.514 7.83 10.64 13.05
12/17/2020 4:45:00 AM 0.01 32.018 0.514 7.83 10.43 13.05
12/17/2020 5:00:00 AM 0.01 32.018 0.515 7.83 11.05 13.07
12/17/2020 5:15:00 AM 0.01 32.018 0.515 7.82 10.77 13.01
12/17/2020 5:30:00 AM 0.01 32.018 0.515 7.82 11 13.04
12/17/2020 5:45:00 AM 0.02 32.036 0.516 7.82 11.07 13.02
12/17/2020 6:00:00 AM 0.01 32.018 0.516 7.82 11.11 13.02
12/17/2020 6:15:00 AM 0.02 32.036 0.515 7.82 11.18 13.03
12/17/2020 6:30:00 AM 0.02 32.036 0.515 7.82 11.31 13.01
12/17/2020 6:45:00 AM 0 32 0.518 7.82 11.42 13.04
12/17/2020 7:00:00 AM 0.01 32.018 0.521 7.82 11.78 13.02
12/17/2020 7:15:00 AM 0 32 0.519 7.82 10.92 13.02
12/17/2020 7:30:00 AM 0.01 32.018 0.518 7.82 11.36 13.03
12/17/2020 7:45:00 AM 0 32 0.518 7.82 11.5 13.05
12/17/2020 8:00:00 AM 0.01 32.018 0.518 7.82 11.23 13.1
12/17/2020 8:15:00 AM 0.01 32.018 0.519 7.83 11.12 13.17
12/17/2020 8:30:00 AM 0.01 32.018 0.519 7.83 10.93 13.24
12/17/2020 8:45:00 AM 0 32 0.52 7.84 11.85 13.3
12/17/2020 9:00:00 AM 0.01 32.018 0.52 7.84 12.94 13.39
12/17/2020 9:15:00 AM 0.03 32.054 0.521 7.85 13.49 13.51
12/17/2020 9:30:00 AM 0.05 32.09 0.521 7.86 13.31 13.64
12/17/2020 9:45:00 AM 0.08 32.144 0.521 7.87 13 13.74
12/17/2020 10:00:00 AM 0.1 32.18 0.521 7.88 16.61 13.86
12/17/2020 10:15:00 AM 0.11 32.198 0.521 7.89 13.83 14
12/17/2020 10:30:00 AM 0.2 32.36 0.521 7.9 14.99 14.17
12/17/2020 10:45:00 AM 0.23 32.414 0.52 7.92 14.67 14.34
12/17/2020 11:00:00 AM 0.24 32.432 0.521 7.93 14.01 14.45
12/17/2020 11:15:00 AM 0.21 32.378 0.52 7.94 16.46 14.56
12/17/2020 11:30:00 AM 0.22 32.396 0.52 7.96 16.26 14.69
12/17/2020 11:45:00 AM 0.27 32.486 0.519 7.97 16.36 14.8
12/17/2020 12:00:00 PM 0.28 32.504 0.519 7.98 15.95 14.94
12/17/2020 12:15:00 PM 0.29 32.522 0.519 7.99 14.77 15.06
12/17/2020 12:30:00 PM 0.28 32.504 0.518 8 14.52 15.14
12/17/2020 12:45:00 PM 0.27 32.486 0.517 8.02 14.42 15.24
12/17/2020 1:00:00 PM 0.25 32.45 0.517 8.03 14.54 15.34
12/17/2020 1:15:00 PM 0.27 32.486 0.516 8.04 15.93 15.42
12/17/2020 1:30:00 PM 0.28 32.504 0.515 8.05 14.32 15.46
12/17/2020 1:45:00 PM 0.29 32.522 0.514 8.06 14.89 15.53
12/17/2020 2:00:00 PM 0.3 32.54 0.513 8.07 16.32 15.51
12/17/2020 2:15:00 PM 0.33 32.594 0.512 8.08 15.15 15.49
12/17/2020 2:30:00 PM 0.34 32.612 0.511 8.09 16.32 15.47
12/17/2020 2:45:00 PM 0.37 32.666 0.511 8.09 17.77 15.46
12/17/2020 3:00:00 PM 0.39 32.702 0.51 8.1 17.76 15.38
12/17/2020 3:15:00 PM 0.46 32.828 0.509 8.1 14.83 15.33
12/17/2020 3:30:00 PM 0.49 32.882 0.509 8.1 15.14 15.23
12/17/2020 3:45:00 PM 0.56 33.008 0.508 8.11 15.54 15.19
12/17/2020 4:00:00 PM 0.59 33.062 0.508 8.1 14.65 15.09
12/17/2020 4:15:00 PM 0.62 33.116 0.508 8.1 15.35 15.01
12/17/2020 4:30:00 PM 0.64 33.152 0.507 8.1 17.29 14.93
12/17/2020 4:45:00 PM 0.67 33.206 0.507 8.09 15.65 14.84
12/17/2020 5:00:00 PM 0.69 33.242 0.506 8.09 18.2 14.71
12/17/2020 5:15:00 PM 0.69 33.242 0.506 8.09 16.6 14.64
12/17/2020 5:30:00 PM 0.69 33.242 0.506 8.08 15.04 14.56
12/17/2020 5:45:00 PM 0.72 33.296 0.504 8.09 15.15 14.48
12/17/2020 6:00:00 PM 0.72 33.296 0.503 8.08 14.26 14.43
12/17/2020 6:15:00 PM 0.71 33.278 0.502 8.08 15.56 14.39
12/17/2020 6:30:00 PM 0.72 33.296 0.501 8.07 15.48 14.32
12/17/2020 6:45:00 PM 0.72 33.296 0.5 8.07 13.34 14.31
12/17/2020 7:00:00 PM 0.72 33.296 0.498 8.07 15.05 14.27
12/17/2020 7:15:00 PM 0.72 33.296 0.497 8.07 15.42 14.23
12/17/2020 7:30:00 PM 0.72 33.296 0.495 8.06 15.33 14.2
12/17/2020 7:45:00 PM 0.72 33.296 0.493 8.05 15.38 14.16
12/17/2020 8:00:00 PM 0.73 33.314 0.491 8.05 13.06 14.14
12/17/2020 8:15:00 PM 0.73 33.314 0.489 8.05 13.29 14.08
12/17/2020 8:30:00 PM 0.73 33.314 0.488 8.04 14.05 14.05
12/17/2020 8:45:00 PM 0.74 33.332 0.486 8.03 12.62 13.99
12/17/2020 9:00:00 PM 0.74 33.332 0.485 8.03 12.67 13.97
12/17/2020 9:15:00 PM 0.75 33.35 0.484 8.02 14.52 13.95
12/17/2020 9:30:00 PM 0.75 33.35 0.482 8.01 14.29 13.9
12/17/2020 9:45:00 PM 0.76 33.368 0.481 8.01 12.75 13.89
12/17/2020 10:00:00 PM 0.77 33.386 0.48 8 14.53 13.87
12/17/2020 10:15:00 PM 0.78 33.404 0.479 8 12.7 13.82
12/17/2020 10:30:00 PM 0.79 33.422 0.478 7.99 12.85 13.78
12/17/2020 10:45:00 PM 0.8 33.44 0.477 7.99 14.04 13.79
12/17/2020 11:00:00 PM 0.8 33.44 0.476 7.98 12.33 13.74
12/17/2020 11:15:00 PM 0.81 33.458 0.475 7.98 12.49 13.72
12/17/2020 11:30:00 PM 0.82 33.476 0.475 7.97 13.83 13.7
12/17/2020 11:45:00 PM 0.83 33.494 0.474 7.97 13.14 13.66
12/18/2020 12:00:00 AM 0.83 33.494 0.474 7.96 12.14 13.65
12/18/2020 12:15:00 AM 0.84 33.512 0.473 7.96 13.15 13.61
12/18/2020 12:30:00 AM 0.85 33.53 0.472 7.95 13.29 13.58
12/18/2020 12:45:00 AM 0.86 33.548 0.472 7.95 13.07 13.58
12/18/2020 1:00:00 AM 0.87 33.566 0.471 7.94 12.55 13.53
12/18/2020 1:15:00 AM 0.87 33.566 0.471 7.94 13 13.5
12/18/2020 1:30:00 AM 0.88 33.584 0.47 7.93 11.76 13.49
12/18/2020 1:45:00 AM 0.89 33.602 0.469 7.92 11.39 13.47
12/18/2020 2:00:00 AM 0.9 33.62 0.469 7.92 12.24 13.44
12/18/2020 2:15:00 AM 0.9 33.62 0.468 7.91 19.59 13.41
12/18/2020 2:30:00 AM 0.9 33.62 0.468 7.91 12.77 13.4
12/18/2020 2:45:00 AM 0.9 33.62 0.468 7.91 12.92 13.39
12/18/2020 3:00:00 AM 0.91 33.638 0.468 7.9 12.09 13.39
12/18/2020 3:15:00 AM 0.9 33.62 0.468 7.9 13.59 13.37
12/18/2020 3:30:00 AM 0.91 33.638 0.468 7.89 12.14 13.36
12/18/2020 3:45:00 AM 0.91 33.638 0.467 7.89 11.93 13.35
12/18/2020 4:00:00 AM 0.92 33.656 0.467 7.89 12.69 13.34
12/18/2020 4:15:00 AM 0.91 33.638 0.468 7.89 11.27 13.34
12/18/2020 4:30:00 AM 0.92 33.656 0.468 7.89 12.55 13.33
12/18/2020 4:45:00 AM 0.91 33.638 0.467 7.88 12.49 13.33
12/18/2020 5:00:00 AM 0.92 33.656 0.468 7.88 12.55 13.32
12/18/2020 5:15:00 AM 0.92 33.656 0.468 7.88 12.49 13.32
12/18/2020 5:30:00 AM 0.92 33.656 0.468 7.88 12.36 13.32
12/18/2020 5:45:00 AM 0.92 33.656 0.468 7.88 12.4 13.31
12/18/2020 6:00:00 AM 0.93 33.674 0.468 7.88 11.72 13.31
12/18/2020 6:15:00 AM 0.92 33.656 0.468 7.88 12.47 13.32
12/18/2020 6:30:00 AM 0.92 33.656 0.468 7.87 12.33 13.32
12/18/2020 6:45:00 AM 0.92 33.656 0.469 7.87 12.3 13.32
12/18/2020 7:00:00 AM 0.92 33.656 0.469 7.88 12.04 13.31
12/18/2020 7:15:00 AM 0.92 33.656 0.469 7.87 12.92 13.29
12/18/2020 7:30:00 AM 0.92 33.656 0.47 7.88 11.76 13.3
12/18/2020 7:45:00 AM 0.92 33.656 0.47 7.87 12.17 13.31
12/18/2020 8:00:00 AM 0.93 33.674 0.47 7.88 12.63 13.38
12/18/2020 8:15:00 AM 0.94 33.692 0.471 7.88 12.69 13.43
12/18/2020 8:30:00 AM 0.96 33.728 0.471 7.89 18.71 13.45
12/18/2020 8:45:00 AM 0.98 33.764 0.471 7.89 11.61 13.54
12/18/2020 9:00:00 AM 1.01 33.818 0.471 7.9 11.47 13.65
12/18/2020 9:15:00 AM 1.04 33.872 0.472 7.9 11.86 13.76
12/18/2020 9:30:00 AM 1.08 33.944 0.472 7.91 12.68 13.85
12/18/2020 9:45:00 AM 1.12 34.016 0.472 7.92 12.72 13.97
12/18/2020 10:00:00 AM 1.17 34.106 0.472 7.93 12.27 14.11
12/18/2020 10:15:00 AM 1.21 34.178 0.473 7.94 12.02 14.24
12/18/2020 10:30:00 AM 1.26 34.268 0.473 7.95 11.39 14.39
12/18/2020 10:45:00 AM 1.33 34.394 0.473 7.97 10.92 14.5
12/18/2020 11:00:00 AM 1.42 34.556 0.474 7.98 11.72 14.62
12/18/2020 11:15:00 AM 1.52 34.736 0.475 7.99 13.94 14.73
12/18/2020 11:30:00 AM 1.63 34.934 0.475 8 12.01 14.83
12/18/2020 11:45:00 AM 1.75 35.15 0.476 8.02 12.18 14.93
12/18/2020 12:00:00 PM 1.87 35.366 0.476 8.02 11.69 15.02
12/18/2020 12:15:00 PM 1.95 35.51 0.477 8.03 12.11 15.07
12/18/2020 12:30:00 PM 2.04 35.672 0.477 8.04 12.34 15.13
12/18/2020 12:45:00 PM 2.13 35.834 0.478 8.05 12.13 15.18
12/18/2020 1:00:00 PM 2.2 35.96 0.478 8.05 12.69 15.23
12/18/2020 1:15:00 PM 2.28 36.104 0.479 8.06 12.85 15.28
12/18/2020 1:30:00 PM 2.34 36.212 0.479 8.07 12.49 15.33
12/18/2020 1:45:00 PM 2.4 36.32 0.479 8.07 12.94 15.37
12/18/2020 2:00:00 PM 2.44 36.392 0.479 8.08 12.2 15.38
12/18/2020 2:15:00 PM 2.48 36.464 0.48 8.09 13.7 15.4
12/18/2020 2:30:00 PM 2.51 36.518 0.48 8.09 11.31 15.4
12/18/2020 2:45:00 PM 2.52 36.536 0.48 8.1 12.11 15.4
12/18/2020 3:00:00 PM 2.52 36.536 0.48 8.1 11.99 15.39
12/18/2020 3:15:00 PM 2.51 36.518 0.48 8.11 12.21 15.37
12/18/2020 3:30:00 PM 2.49 36.482 0.48 8.11 11.31 15.31
12/18/2020 3:45:00 PM 2.45 36.41 0.48 8.11 11.81 15.23
12/18/2020 4:00:00 PM 2.42 36.356 0.48 8.12 11.54 15.18
12/18/2020 4:15:00 PM 2.39 36.302 0.48 8.11 11.3 15.06
12/18/2020 4:30:00 PM 2.35 36.23 0.481 8.11 11.58 14.97
12/18/2020 4:45:00 PM 2.31 36.158 0.481 8.1 12.78 14.83
12/18/2020 5:00:00 PM 2.27 36.086 0.482 8.1 11.24 14.7
12/18/2020 5:15:00 PM 2.23 36.014 0.483 8.09 12.42 14.55
12/18/2020 5:30:00 PM 2.19 35.942 0.483 8.09 11.49 14.43
12/18/2020 5:45:00 PM 2.16 35.888 0.484 8.08 11.21 14.31
12/18/2020 6:00:00 PM 2.1 35.78 0.485 8.07 11.07 14.2
12/18/2020 6:15:00 PM 2.05 35.69 0.486 8.06 12.41 14.12
12/18/2020 6:30:00 PM 1.98 35.564 0.486 8.05 11.86 14.04
12/18/2020 6:45:00 PM 1.91 35.438 0.487 8.05 11.5 13.97
12/18/2020 7:00:00 PM 1.82 35.276 0.488 8.05 12.29 13.92
12/18/2020 7:15:00 PM 1.74 35.132 0.488 8.04 12.8 13.88
12/18/2020 7:30:00 PM 1.64 34.952 0.489 8.04 12.04 13.84
12/18/2020 7:45:00 PM 1.56 34.808 0.489 8.04 11.71 13.83
12/18/2020 8:00:00 PM 1.46 34.628 0.489 8.04 14.85 13.81
12/18/2020 8:15:00 PM 1.38 34.484 0.49 8.04 24.14 13.78
12/18/2020 8:30:00 PM 1.28 34.304 0.49 8.03 11.83 13.78
12/18/2020 8:45:00 PM 1.2 34.16 0.49 8.04 14.52 13.74
12/18/2020 9:00:00 PM 1.12 34.016 0.491 8.03 11.97 13.75
12/18/2020 9:15:00 PM 1.03 33.854 0.491 8.03 12.97 13.74
12/18/2020 9:30:00 PM 0.94 33.692 0.491 8.03 15.04 13.72
12/18/2020 9:45:00 PM 0.89 33.602 0.492 8.02 12.49 13.7
12/18/2020 10:00:00 PM 0.85 33.53 0.492 8.02 12.2 13.71
12/18/2020 10:15:00 PM 0.8 33.44 0.492 8.02 16.59 13.67
12/18/2020 10:30:00 PM 0.73 33.314 0.493 8.01 12.89 13.66
12/18/2020 10:45:00 PM 0.67 33.206 0.493 8.01 12.2 13.67
12/18/2020 11:00:00 PM 0.61 33.098 0.493 8.01 12.06 13.67
12/18/2020 11:15:00 PM 0.56 33.008 0.493 8.01 12.17 13.69
12/18/2020 11:30:00 PM 0.53 32.954 0.494 8.01 11.73 13.69
12/18/2020 11:45:00 PM 0.48 32.864 0.494 8.01 11.87 13.71
12/19/2020 12:00:00 AM 0.44 32.792 0.494 8 34.06 13.71
12/19/2020 12:15:00 AM 0.39 32.702 0.495 8 11.53 13.72
12/19/2020 12:30:00 AM 0.34 32.612 0.495 8 11.88 13.72
12/19/2020 12:45:00 AM 0.29 32.522 0.495 7.99 14.76 13.74
12/19/2020 1:00:00 AM 0.26 32.468 0.495 7.99 11.72 13.73
12/19/2020 1:15:00 AM 0.24 32.432 0.496 7.99 11.88 13.75
12/19/2020 1:30:00 AM 0.23 32.414 0.496 7.99 12 13.74
12/19/2020 1:45:00 AM 0.22 32.396 0.496 7.98 11.86 13.73
12/19/2020 2:00:00 AM 0.2 32.36 0.497 7.99 11.59 13.74
12/19/2020 2:15:00 AM 0.18 32.324 0.497 7.98 11.65 13.71
12/19/2020 2:30:00 AM 0.16 32.288 0.497 7.98 11.55 13.74
12/19/2020 2:45:00 AM 0.14 32.252 0.498 7.97 11.78 13.73
12/19/2020 3:00:00 AM 0.14 32.252 0.498 7.97 12.53 13.71
12/19/2020 3:15:00 AM 0.14 32.252 0.498 7.97 12.67 13.68
12/19/2020 3:30:00 AM 0.14 32.252 0.499 7.96 14.93 13.69
12/19/2020 3:45:00 AM 0.13 32.234 0.499 7.96 13.11 13.66
12/19/2020 4:00:00 AM 0.1 32.18 0.499 7.95 12.37 13.66
12/19/2020 4:15:00 AM 0.08 32.144 0.5 7.95 11.87 13.65
12/19/2020 4:30:00 AM 0.07 32.126 0.5 7.95 11.99 13.66
12/19/2020 4:45:00 AM 0.05 32.09 0.5 7.95 14.95 13.65
12/19/2020 5:00:00 AM 0.03 32.054 0.501 7.94 13.86 13.66
12/19/2020 5:15:00 AM 0.01 32.018 0.502 7.94 13.04 13.64
12/19/2020 5:30:00 AM 0 32 0.502 7.94 13 13.65
12/19/2020 5:45:00 AM -0.02 31.964 0.503 7.94 12.51 13.65
12/19/2020 6:00:00 AM -0.04 31.928 0.503 7.94 12.9 13.66
12/19/2020 6:15:00 AM -0.05 31.91 0.504 7.93 13.51 13.66
12/19/2020 6:30:00 AM -0.05 31.91 0.505 7.94 12.93 13.69
12/19/2020 6:45:00 AM -0.06 31.892 0.505 7.93 12.6 13.68
12/19/2020 7:00:00 AM -0.05 31.91 0.506 7.93 12.32 13.71
12/19/2020 7:15:00 AM -0.05 31.91 0.506 7.93 12.19 13.73
12/19/2020 7:30:00 AM -0.04 31.928 0.507 7.93 12.07 13.76
12/19/2020 7:45:00 AM -0.04 31.928 0.507 7.93 12.46 13.75
12/19/2020 8:00:00 AM -0.04 31.928 0.508 7.93 18.85 13.76
12/19/2020 8:15:00 AM -0.03 31.946 0.508 7.93 12.83 13.79
12/19/2020 8:30:00 AM -0.02 31.964 0.508 7.93 11.48 13.9
12/19/2020 8:45:00 AM -0.01 31.982 0.508 7.94 11.88 14.04
12/19/2020 9:00:00 AM 0 32 0.508 7.95 11.75 14.17
12/19/2020 9:15:00 AM 0.03 32.054 0.508 7.95 12.17 14.33
12/19/2020 9:30:00 AM 0.07 32.126 0.509 7.95 12.34 14.47
12/19/2020 9:45:00 AM 0.11 32.198 0.509 7.96 11.65 14.62
12/19/2020 10:00:00 AM 0.18 32.324 0.509 7.97 12.33 14.76
12/19/2020 10:15:00 AM 0.25 32.45 0.509 7.98 12.38 14.93
12/19/2020 10:30:00 AM 0.3 32.54 0.508 7.99 11.33 15.1
12/19/2020 10:45:00 AM 0.34 32.612 0.508 8 12.05 15.25
12/19/2020 11:00:00 AM 0.39 32.702 0.508 8.01 11.51 15.37
12/19/2020 11:15:00 AM 0.44 32.792 0.509 8.02 10.89 15.51
12/19/2020 11:30:00 AM 0.52 32.936 0.509 8.03 11.01 15.63
12/19/2020 11:45:00 AM 0.6 33.08 0.509 8.04 11.39 15.74
12/19/2020 12:00:00 PM 0.67 33.206 0.51 8.06 11.33 15.83
12/19/2020 12:15:00 PM 0.75 33.35 0.51 8.07 13.06 15.89
12/19/2020 12:30:00 PM 0.82 33.476 0.511 8.07 11.27 15.96
12/19/2020 12:45:00 PM 0.87 33.566 0.511 8.09 11.51 15.99
12/19/2020 1:00:00 PM 0.94 33.692 0.512 8.09 11.14 15.97
12/19/2020 1:15:00 PM 1.02 33.836 0.512 8.1 12.39 15.99
12/19/2020 1:30:00 PM 1.09 33.962 0.512 8.1 12 15.99
12/19/2020 1:45:00 PM 1.16 34.088 0.512 8.11 11.85 16.01
12/19/2020 2:00:00 PM 1.21 34.178 0.512 8.11 10.86 15.99
12/19/2020 2:15:00 PM 1.29 34.322 0.512 8.11 11.45 15.96
12/19/2020 2:30:00 PM 1.36 34.448 0.512 8.11 11.4 15.93
12/19/2020 2:45:00 PM 1.41 34.538 0.511 8.12 11.23 15.9
12/19/2020 3:00:00 PM 1.46 34.628 0.511 8.13 12.73 15.92
12/19/2020 3:15:00 PM 1.51 34.718 0.511 8.13 11.77 15.86
12/19/2020 3:30:00 PM 1.53 34.754 0.51 8.13 11.93 15.78
12/19/2020 3:45:00 PM 1.55 34.79 0.51 8.13 11.54 15.7
12/19/2020 4:00:00 PM 1.56 34.808 0.509 8.13 13.46 15.61
12/19/2020 4:15:00 PM 1.56 34.808 0.509 8.13 11.86 15.47
12/19/2020 4:30:00 PM 1.55 34.79 0.509 8.12 12.37 15.29
12/19/2020 4:45:00 PM 1.53 34.754 0.509 8.11 12.6 15.17
12/19/2020 5:00:00 PM 1.49 34.682 0.509 8.11 11.99 15.01
12/19/2020 5:15:00 PM 1.46 34.628 0.509 8.1 13.62 14.88
12/19/2020 5:30:00 PM 1.43 34.574 0.51 8.09 14.73 14.74
12/19/2020 5:45:00 PM 1.38 34.484 0.511 8.08 11.98 14.64
12/19/2020 6:00:00 PM 1.33 34.394 0.512 8.08 12.42 14.51
12/19/2020 6:15:00 PM 1.27 34.286 0.513 8.07 11.15 14.44
12/19/2020 6:30:00 PM 1.21 34.178 0.513 8.06 11.98 14.35
12/19/2020 6:45:00 PM 1.16 34.088 0.514 8.06 13.81 14.3
12/19/2020 7:00:00 PM 1.13 34.034 0.515 8.06 12.9 14.24
12/19/2020 7:15:00 PM 1.08 33.944 0.515 8.05 12.01 14.18
12/19/2020 7:30:00 PM 1.05 33.89 0.516 8.05 11.91 14.13
12/19/2020 7:45:00 PM 1.02 33.836 0.517 8.04 11.54 14.13
12/19/2020 8:00:00 PM 1 33.8 0.517 8.04 12.66 14.07
12/19/2020 8:15:00 PM 0.97 33.746 0.518 8.04 12.24 14.07
12/19/2020 8:30:00 PM 0.95 33.71 0.518 8.04 13.37 14.03
12/19/2020 8:45:00 PM 0.94 33.692 0.519 8.03 12.89 13.97
12/19/2020 9:00:00 PM 0.94 33.692 0.519 8.03 16.43 13.95
12/19/2020 9:15:00 PM 0.93 33.674 0.519 8.03 13.9 13.91
12/19/2020 9:30:00 PM 0.92 33.656 0.519 8.02 13.33 13.88
12/19/2020 9:45:00 PM 0.92 33.656 0.518 8.02 13.16 13.83
12/19/2020 10:00:00 PM 0.91 33.638 0.518 8.01 13.73 13.8
12/19/2020 10:15:00 PM 0.9 33.62 0.518 8.01 13.26 13.77
12/19/2020 10:30:00 PM 0.9 33.62 0.517 8 14.4 13.75
12/19/2020 10:45:00 PM 0.91 33.638 0.517 8 13.19 13.72
12/19/2020 11:00:00 PM 0.91 33.638 0.517 8 13.48 13.69
12/19/2020 11:15:00 PM 0.92 33.656 0.516 8 13.15 13.67
12/19/2020 11:30:00 PM 0.93 33.674 0.516 8 13.77 13.64
12/19/2020 11:45:00 PM 0.93 33.674 0.516 7.99 13.72 13.63
12/20/2020 12:00:00 AM 0.94 33.692 0.515 7.99 12.92 13.61
12/20/2020 12:15:00 AM 0.93 33.674 0.515 7.99 13.65 13.59
12/20/2020 12:30:00 AM 0.93 33.674 0.515 7.98 12.67 13.56
12/20/2020 12:45:00 AM 0.93 33.674 0.514 7.98 12.78 13.54
12/20/2020 1:00:00 AM 0.95 33.71 0.514 7.98 13.49 13.52
12/20/2020 1:15:00 AM 0.96 33.728 0.514 7.98 13.07 13.5
12/20/2020 1:30:00 AM 0.98 33.764 0.514 7.97 12.98 13.46
12/20/2020 1:45:00 AM 0.98 33.764 0.513 7.97 12.73 13.43
12/20/2020 2:00:00 AM 0.99 33.782 0.513 7.97 12.65 13.42
12/20/2020 2:15:00 AM 0.99 33.782 0.513 7.96 12.36 13.38
12/20/2020 2:30:00 AM 1 33.8 0.513 7.96 13.05 13.37
12/20/2020 2:45:00 AM 1.01 33.818 0.513 7.95 13.61 13.34
12/20/2020 3:00:00 AM 1.02 33.836 0.512 7.95 13.3 13.32
12/20/2020 3:15:00 AM 1.02 33.836 0.512 7.95 12.72 13.28
12/20/2020 3:30:00 AM 1.02 33.836 0.512 7.94 12.81 13.28
12/20/2020 3:45:00 AM 1.02 33.836 0.512 7.94 13.81 13.25
12/20/2020 4:00:00 AM 1.02 33.836 0.512 7.94 12.17 13.25
12/20/2020 4:15:00 AM 1.03 33.854 0.512 7.93 13.32 13.24
12/20/2020 4:30:00 AM 1.03 33.854 0.512 7.93 12.66 13.22
12/20/2020 4:45:00 AM 1.04 33.872 0.512 7.93 12.45 13.19
12/20/2020 5:00:00 AM 1.03 33.854 0.512 7.92 13.13 13.2
12/20/2020 5:15:00 AM 1.03 33.854 0.511 7.92 12.95 13.19
12/20/2020 5:30:00 AM 1.03 33.854 0.511 7.92 12.15 13.18
12/20/2020 5:45:00 AM 1.04 33.872 0.511 7.92 13.84 13.18
12/20/2020 6:00:00 AM 1.03 33.854 0.511 7.92 16.96 13.17
12/20/2020 6:15:00 AM 1.03 33.854 0.511 7.91 12.83 13.15
12/20/2020 6:30:00 AM 1.02 33.836 0.511 7.91 13.13 13.16
12/20/2020 6:45:00 AM 1.02 33.836 0.511 7.91 12.42 13.16
12/20/2020 7:00:00 AM 1.03 33.854 0.511 7.91 12.45 13.16
12/20/2020 7:15:00 AM 1.03 33.854 0.512 7.91 12.19 13.16
12/20/2020 7:30:00 AM 1.03 33.854 0.512 7.91 12.89 13.16
12/20/2020 7:45:00 AM 1.01 33.818 0.512 7.91 13.08 13.16
12/20/2020 8:00:00 AM 1 33.8 0.512 7.91 12.72 13.18
12/20/2020 8:15:00 AM 1.01 33.818 0.512 7.91 13.04 13.19
12/20/2020 8:30:00 AM 0.95 33.71 0.512 7.91 15.45 13.25
12/20/2020 8:45:00 AM 0.95 33.71 0.512 7.91 13.85 13.35
12/20/2020 9:00:00 AM 0.98 33.764 0.512 7.92 12.56 13.47
12/20/2020 9:15:00 AM 1.05 33.89 0.511 7.93 24.59 13.65
12/20/2020 9:30:00 AM 1.07 33.926 0.511 7.94 17.95 13.79
12/20/2020 9:45:00 AM 1.08 33.944 0.511 7.95 11.89 13.91
12/20/2020 10:00:00 AM 1.14 34.052 0.51 7.95 12.59 14.07
12/20/2020 10:15:00 AM 1.23 34.214 0.51 7.97 12.57 14.28
12/20/2020 10:30:00 AM 1.32 34.376 0.509 7.98 12.17 14.42
12/20/2020 10:45:00 AM 1.44 34.592 0.509 7.99 12.29 14.59
12/20/2020 11:00:00 AM 1.5 34.7 0.509 8 11.81 14.71
12/20/2020 11:15:00 AM 1.61 34.898 0.508 8.01 12.19 14.81
12/20/2020 11:30:00 AM 1.71 35.078 0.508 8.02 11.32 14.92
12/20/2020 11:45:00 AM 1.79 35.222 0.507 8.04 13.54 15
12/20/2020 12:00:00 PM 1.88 35.384 0.507 8.05 11.83 15.1
12/20/2020 12:15:00 PM 1.97 35.546 0.506 8.05 11.66 15.18
12/20/2020 12:30:00 PM 2.07 35.726 0.506 8.07 12.98 15.27
12/20/2020 12:45:00 PM 2.17 35.906 0.505 8.07 13.63 15.32
12/20/2020 1:00:00 PM 2.25 36.05 0.505 8.08 12.58 15.36
12/20/2020 1:15:00 PM 2.32 36.176 0.505 8.09 13.63 15.4
12/20/2020 1:30:00 PM 2.39 36.302 0.505 8.1 11.5 15.43
12/20/2020 1:45:00 PM 2.45 36.41 0.505 8.1 11.5 15.43
12/20/2020 2:00:00 PM 2.51 36.518 0.505 8.11 15.29 15.4
12/20/2020 2:15:00 PM 2.57 36.626 0.505 8.11 15.02 15.43
12/20/2020 2:30:00 PM 2.62 36.716 0.505 8.11 11.69 15.4
12/20/2020 2:45:00 PM 2.66 36.788 0.505 8.12 13.37 15.39
12/20/2020 3:00:00 PM 2.7 36.86 0.506 8.12 11.93 15.34
12/20/2020 3:15:00 PM 2.74 36.932 0.506 8.12 13.69 15.31
12/20/2020 3:30:00 PM 2.77 36.986 0.506 8.12 15.31 15.26
12/20/2020 3:45:00 PM 2.79 37.022 0.506 8.12 13.28 15.16
12/20/2020 4:00:00 PM 2.8 37.04 0.506 8.12 12.1 15.04
12/20/2020 4:15:00 PM 2.81 37.058 0.507 8.12 11.8 14.91
12/20/2020 4:30:00 PM 2.81 37.058 0.507 8.11 11.74 14.74
12/20/2020 4:45:00 PM 2.8 37.04 0.508 8.11 11.93 14.6
12/20/2020 5:00:00 PM 2.79 37.022 0.508 8.1 12.61 14.41
12/20/2020 5:15:00 PM 2.78 37.004 0.508 8.09 12 14.26
12/20/2020 5:30:00 PM 2.77 36.986 0.509 8.08 11.53 14.12
12/20/2020 5:45:00 PM 2.76 36.968 0.509 8.07 12.12 13.98
12/20/2020 6:00:00 PM 2.76 36.968 0.509 8.06 13.15 13.82
12/20/2020 6:15:00 PM 2.75 36.95 0.509 8.05 13.43 13.7
12/20/2020 6:30:00 PM 2.75 36.95 0.509 8.04 12.21 13.62
12/20/2020 6:45:00 PM 2.75 36.95 0.509 8.04 12.48 13.51
12/20/2020 7:00:00 PM 2.75 36.95 0.509 8.03 12.61 13.43
12/20/2020 7:15:00 PM 2.75 36.95 0.509 8.02 11.66 13.37
12/20/2020 7:30:00 PM 2.74 36.932 0.508 8.01 13.66 13.31
12/20/2020 7:45:00 PM 2.72 36.896 0.508 8.01 12.55 13.26
12/20/2020 8:00:00 PM 2.73 36.914 0.508 8 12.49 13.2
12/20/2020 8:15:00 PM 2.72 36.896 0.508 8 13.32 13.17
12/20/2020 8:30:00 PM 2.72 36.896 0.508 8 13.01 13.1
12/20/2020 8:45:00 PM 2.72 36.896 0.508 7.99 13.42 13.06
12/20/2020 9:00:00 PM 2.72 36.896 0.508 7.98 12.92 13.01
12/20/2020 9:15:00 PM 2.73 36.914 0.509 7.98 12.6 12.97
12/20/2020 9:30:00 PM 2.73 36.914 0.509 7.98 13.1 12.92
12/20/2020 9:45:00 PM 2.74 36.932 0.511 7.98 12.95 12.87
12/20/2020 10:00:00 PM 2.75 36.95 0.512 7.97 13.5 12.81
12/20/2020 10:15:00 PM 2.76 36.968 0.513 7.97 13.33 12.78
12/20/2020 10:30:00 PM 2.77 36.986 0.515 7.96 13.28 12.73
12/20/2020 10:45:00 PM 2.79 37.022 0.516 7.96 16.59 12.7
12/20/2020 11:00:00 PM 2.8 37.04 0.517 7.96 13.81 12.66
12/20/2020 11:15:00 PM 2.82 37.076 0.517 7.95 16.2 12.64
12/20/2020 11:30:00 PM 2.83 37.094 0.517 7.95 13.45 12.6
12/20/2020 11:45:00 PM 2.85 37.13 0.517 7.95 13.65 12.57
12/21/2020 12:00:00 AM 2.87 37.166 0.517 7.95 13.38 12.54
12/21/2020 12:15:00 AM 2.87 37.166 0.517 7.95 13.97 12.52
12/21/2020 12:30:00 AM 2.89 37.202 0.516 7.94 12.71 12.48
12/21/2020 12:45:00 AM 2.9 37.22 0.515 7.94 13.19 12.48
12/21/2020 1:00:00 AM 2.9 37.22 0.515 7.94 12.57 12.44
12/21/2020 1:15:00 AM 2.91 37.238 0.514 7.94 12.76 12.41
12/21/2020 1:30:00 AM 2.92 37.256 0.513 7.93 13.39 12.37
12/21/2020 1:45:00 AM 2.93 37.274 0.512 7.93 12.48 12.35
12/21/2020 2:00:00 AM 2.93 37.274 0.511 7.93 12.84 12.3
12/21/2020 2:15:00 AM 2.93 37.274 0.511 7.92 12.82 12.29
12/21/2020 2:30:00 AM 2.93 37.274 0.51 7.92 14.6 12.26
12/21/2020 2:45:00 AM 2.92 37.256 0.509 7.92 12.85 12.24
12/21/2020 3:00:00 AM 2.89 37.202 0.508 7.91 13.27 12.21
12/21/2020 3:15:00 AM 2.83 37.094 0.508 7.91 13.93 12.21
12/21/2020 3:30:00 AM 2.77 36.986 0.507 7.91 12.72 12.2
12/21/2020 3:45:00 AM 2.73 36.914 0.507 7.91 13.9 12.18
12/21/2020 4:00:00 AM 2.7 36.86 0.506 7.91 15.58 12.17
12/21/2020 4:15:00 AM 2.66 36.788 0.506 7.91 13.74 12.16
12/21/2020 4:30:00 AM 2.61 36.698 0.505 7.9 13.25 12.15
12/21/2020 4:45:00 AM 2.55 36.59 0.505 7.9 13.59 12.17
12/21/2020 5:00:00 AM 2.49 36.482 0.504 7.9 12.92 12.16
12/21/2020 5:15:00 AM 2.43 36.374 0.504 7.9 13.67 12.19
12/21/2020 5:30:00 AM 2.37 36.266 0.504 7.9 13.79 12.19
12/21/2020 5:45:00 AM 2.32 36.176 0.503 7.9 13.33 12.19
12/21/2020 6:00:00 AM 2.29 36.122 0.503 7.9 12.86 12.19
12/21/2020 6:15:00 AM 2.26 36.068 0.503 7.89 13.01 12.19
12/21/2020 6:30:00 AM 2.23 36.014 0.503 7.9 13.73 12.2
12/21/2020 6:45:00 AM 2.21 35.978 0.502 7.89 13.08 12.21
12/21/2020 7:00:00 AM 2.18 35.924 0.502 7.89 13.8 12.23
12/21/2020 7:15:00 AM 2.16 35.888 0.502 7.89 14.97 12.21
12/21/2020 7:30:00 AM 2.15 35.87 0.502 7.89 13.89 12.24
12/21/2020 7:45:00 AM 2.15 35.87 0.501 7.89 13.59 12.27
12/21/2020 8:00:00 AM 2.15 35.87 0.501 7.88 13.49 12.32
12/21/2020 8:15:00 AM 2.15 35.87 0.501 7.89 14.67 12.4
12/21/2020 8:30:00 AM 2.16 35.888 0.5 7.89 12.43 12.5
12/21/2020 8:45:00 AM 2.17 35.906 0.5 7.9 15.38 12.67
12/21/2020 9:00:00 AM 2.21 35.978 0.5 7.9 13.25 12.85
These are provisional data and have not been subject to a quality assurance process, but rather are the raw data reported by the instrument.

Data Availability & Limitations

Uncertainty and potential for error can be associated with environmental monitoring data. Provisional data have not been subject to a quality assurance process, but rather are the raw data reported by the instrument. Data users are cautioned to consider carefully the provisional nature of the information before using it for decisions that concern personal or public safety or the conduct of business that involves substantial monetary or operational consequences.

Approved data are currently available by request by emailing: srbc@srbc.net. Approved data have been subject to a quality assurance process to correct for equipment or fouling drift. Data recorded during equipment malfunctions have been removed.

View Historical Stations that have been discontinued.